Observation data for Fort Lancaster on 12/07/2018      Previous  Date       Current Mesonet Observations  Soil Data  Daily Summary Page  Observations in Plain Language
KLA1 070600Z 36005KT 07/05 A3025 RMK A01 T00720052  RH  087%=      5-min Rain = 0
KLA1 070601Z 03002KT 07/05 A3025 RMK A01 T00720051  RH  087%=      5-min Rain = 0
KLA1 070602Z 02001KT 07/05 A3025 RMK A01 T00720051  RH  087%=      5-min Rain = 0
KLA1 070603Z 33001KT 07/05 A3025 RMK A01 T00720051  RH  087%=      5-min Rain = 0
KLA1 070604Z 35000KT 07/05 A3025 RMK A01 T00720052  RH  087%=      5-min Rain = 0
KLA1 070605Z 36003KT 07/05 A3025 RMK A01 T00720051  RH  087%=      5-min Rain = 0
KLA1 070606Z 00003KT 07/05 A3025 RMK A01 T00720051  RH  087%=      5-min Rain = 0
KLA1 070607Z 08002KT 07/05 A3025 RMK A01 T00720051  RH  087%=      5-min Rain = 0
KLA1 070608Z 02003KT 07/05 A3025 RMK A01 T00720051  RH  087%=      5-min Rain = 0
KLA1 070609Z 00005KT 07/05 A3025 RMK A01 T00710051  RH  087%=      5-min Rain = 0
KLA1 070610Z 01002KT 07/05 A3025 RMK A01 T00710051  RH  087%=      5-min Rain = 0
KLA1 070611Z 03003KT 07/05 A3025 RMK A01 T00710050  RH  087%=      5-min Rain = 0
KLA1 070612Z 01003KT 07/05 A3025 RMK A01 T00710050  RH  087%=      5-min Rain = 0
KLA1 070613Z 33002KT 07/05 A3025 RMK A01 T00710051  RH  087%=      5-min Rain = 0
KLA1 070614Z 35002KT 07/05 A3025 RMK A01 T00710051  RH  087%=      5-min Rain = 0
KLA1 070615Z 00003KT 07/05 A3025 RMK A01 T00710051  RH  087%=      5-min Rain = 0
KLA1 070616Z 34001KT 07/05 A3025 RMK A01 T00710051  RH  087%=      5-min Rain = 0
KLA1 070617Z 02001KT 07/05 A3025 RMK A01 T00710051  RH  087%=      5-min Rain = 0
KLA1 070618Z 32001KT 07/05 A3025 RMK A01 T00710051  RH  087%=      5-min Rain = 0
KLA1 070619Z 33002KT 07/05 A3025 RMK A01 T00710051  RH  087%=      5-min Rain = 0
KLA1 070620Z 35004KT 07/05 A3025 RMK A01 T00710051  RH  087%=      5-min Rain = 0
KLA1 070621Z 01004KT 07/05 A3025 RMK A01 T00700051  RH  087%=      5-min Rain = 0
KLA1 070622Z 02005KT 07/05 A3025 RMK A01 T00700050  RH  087%=      5-min Rain = 0
KLA1 070623Z 04006KT 07/05 A3025 RMK A01 T00700050  RH  087%=      5-min Rain = 0
KLA1 070624Z 03004KT 07/05 A3025 RMK A01 T00690050  RH  088%=      5-min Rain = 0
KLA1 070625Z 02004KT 07/05 A3025 RMK A01 T00690050  RH  088%=      5-min Rain = 0
KLA1 070626Z 03003KT 07/05 A3025 RMK A01 T00690050  RH  088%=      5-min Rain = 0
KLA1 070627Z 02005KT 07/05 A3026 RMK A01 T00690051  RH  088%=      5-min Rain = 0
KLA1 070628Z 01004KT 07/05 A3026 RMK A01 T00680050  RH  088%=      5-min Rain = 0
KLA1 070629Z 02007KT 07/05 A3026 RMK A01 T00680050  RH  088%=      5-min Rain = 0
KLA1 070630Z 02005KT 07/05 A3026 RMK A01 T00680050  RH  089%=      5-min Rain = 0
KLA1 070631Z 01004KT 07/05 A3025 RMK A01 T00680051  RH  089%=      5-min Rain = 0
KLA1 070632Z 01005KT 07/05 A3025 RMK A01 T00680052  RH  089%=      5-min Rain = 0
KLA1 070633Z 03005KT 07/05 A3025 RMK A01 T00680052  RH  090%=      5-min Rain = 0
KLA1 070634Z 02006KT 07/05 A3025 RMK A01 T00670051  RH  090%=      5-min Rain = 0
KLA1 070635Z 36005KT 07/05 A3025 RMK A01 T00670052  RH  090%=      5-min Rain = 0
KLA1 070636Z 36003KT 07/05 A3025 RMK A01 T00670052  RH  090%=      5-min Rain = 0
KLA1 070637Z 02004KT 07/05 A3025 RMK A01 T00670052  RH  090%=      5-min Rain = 0
KLA1 070638Z 02004KT 07/05 A3025 RMK A01 T00670052  RH  091%=      5-min Rain = 0
KLA1 070639Z 02003KT 07/05 A3025 RMK A01 T00670052  RH  090%=      5-min Rain = 0
KLA1 070640Z 04005KT 07/05 A3025 RMK A01 T00670052  RH  090%=      5-min Rain = 0
KLA1 070641Z 03004KT 07/05 A3025 RMK A01 T00670052  RH  090%=      5-min Rain = 0
KLA1 070642Z 03004KT 07/05 A3025 RMK A01 T00670052  RH  090%=      5-min Rain = 0
KLA1 070643Z 00005KT 07/05 A3025 RMK A01 T00670052  RH  090%=      5-min Rain = 0
KLA1 070644Z 02002KT 07/05 A3025 RMK A01 T00670052  RH  090%=      5-min Rain = 0
KLA1 070645Z 05001KT 07/05 A3025 RMK A01 T00670052  RH  090%=      5-min Rain = 0
KLA1 070646Z 06001KT 07/05 A3026 RMK A01 T00670052  RH  090%=      5-min Rain = 0
KLA1 070647Z 03000KT 07/05 A3026 RMK A01 T00670053  RH  090%=      5-min Rain = 0
KLA1 070648Z 01001KT 07/05 A3026 RMK A01 T00670053  RH  091%=      5-min Rain = 0
KLA1 070649Z 00005KT 07/05 A3025 RMK A01 T00670053  RH  091%=      5-min Rain = 0
KLA1 070650Z 01006KT 07/05 A3025 RMK A01 T00670053  RH  091%=      5-min Rain = 0
KLA1 070651Z 01004KT 07/05 A3025 RMK A01 T00660053  RH  091%=      5-min Rain = 0
KLA1 070652Z 03003KT 07/05 A3025 RMK A01 T00660053  RH  092%=      5-min Rain = 0
KLA1 070653Z 01006KT 07/05 A3025 RMK A01 T00660053  RH  092%=      5-min Rain = 0
KLA1 070654Z 35006KT 07/05 A3025 RMK A01 T00650053  RH  092%=      5-min Rain = 0
KLA1 070655Z 35004KT 07/05 A3025 RMK A01 T00650054  RH  092%=      5-min Rain = 0
KLA1 070656Z 00006KT 07/05 A3025 RMK A01 T00650054  RH  092%=      5-min Rain = 0
KLA1 070657Z 36004KT 07/05 A3026 RMK A01 T00650053  RH  092%=      5-min Rain = 0
KLA1 070658Z 36004KT 07/05 A3026 RMK A01 T00650054  RH  093%=      5-min Rain = 0
KLA1 070659Z 00005KT 06/05 A3026 RMK A01 T00640054  RH  093%=      5-min Rain = 0
KLA1 070700Z 00005KT 07/05 A3026 RMK A01 T00650053  RH  092%=      5-min Rain = 0
KLA1 070701Z 01005KT 07/05 A3026 RMK A01 T00650053  RH  092%=      5-min Rain = 0
KLA1 070702Z 02004KT 07/05 A3026 RMK A01 T00650053  RH  092%=      5-min Rain = 0
KLA1 070703Z 02005KT 06/05 A3026 RMK A01 T00640052  RH  092%=      5-min Rain = 0
KLA1 070704Z 34004KT 06/05 A3026 RMK A01 T00640052  RH  092%=      5-min Rain = 0
KLA1 070705Z 36003KT 06/05 A3026 RMK A01 T00640052  RH  092%=      5-min Rain = 0
KLA1 070706Z 34004KT 06/05 A3026 RMK A01 T00640052  RH  092%=      5-min Rain = 0
KLA1 070707Z 35004KT 06/05 A3026 RMK A01 T00630052  RH  093%=      5-min Rain = 0
KLA1 070708Z 35002KT 06/05 A3026 RMK A01 T00640053  RH  093%=      5-min Rain = 0
KLA1 070709Z 33001KT 06/05 A3027 RMK A01 T00640053  RH  093%=      5-min Rain = 0
KLA1 070710Z 31004KT 06/05 A3027 RMK A01 T00640053  RH  093%=      5-min Rain = 0
KLA1 070711Z 30002KT 06/05 A3027 RMK A01 T00640053  RH  093%=      5-min Rain = 0
KLA1 070712Z 30002KT 06/05 A3027 RMK A01 T00630052  RH  093%=      5-min Rain = 0
KLA1 070713Z 30004KT 06/05 A3027 RMK A01 T00630053  RH  093%=      5-min Rain = 0
KLA1 070714Z 30005KT 06/05 A3027 RMK A01 T00630052  RH  093%=      5-min Rain = 0
KLA1 070715Z 32004KT 06/05 A3027 RMK A01 T00630052  RH  092%=      5-min Rain = 0
KLA1 070716Z 34006KT 06/05 A3027 RMK A01 T00630051  RH  092%=      5-min Rain = 0
KLA1 070717Z 33006KT 06/05 A3027 RMK A01 T00630052  RH  093%=      5-min Rain = 0
KLA1 070718Z 34005KT 06/05 A3027 RMK A01 T00630051  RH  093%=      5-min Rain = 0
KLA1 070719Z 34003KT 06/05 A3027 RMK A01 T00620050  RH  092%=      5-min Rain = 0
KLA1 070720Z 34003KT 06/05 A3027 RMK A01 T00620050  RH  092%=      5-min Rain = 0
KLA1 070721Z 34003KT 06/05 A3027 RMK A01 T00620051  RH  093%=      5-min Rain = 0
KLA1 070722Z 34005KT 06/05 A3027 RMK A01 T00620051  RH  093%=      5-min Rain = 0
KLA1 070723Z 34007KT 06/05 A3027 RMK A01 T00620051  RH  093%=      5-min Rain = 0
KLA1 070724Z 34005KT 06/05 A3027 RMK A01 T00620051  RH  093%=      5-min Rain = 0
KLA1 070725Z 35005KT 06/05 A3027 RMK A01 T00620051  RH  093%=      5-min Rain = 0
KLA1 070726Z 34005KT 06/05 A3027 RMK A01 T00620051  RH  093%=      5-min Rain = 0
KLA1 070727Z 36006KT 06/05 A3027 RMK A01 T00620051  RH  093%=      5-min Rain = 0
KLA1 070728Z 35006KT 06/05 A3027 RMK A01 T00620051  RH  093%=      5-min Rain = 0
KLA1 070729Z 36006KT 06/05 A3027 RMK A01 T00610051  RH  093%=      5-min Rain = 0
KLA1 070730Z 00004KT 06/05 A3027 RMK A01 T00610052  RH  093%=      5-min Rain = 0
KLA1 070731Z 33004KT 06/05 A3027 RMK A01 T00610052  RH  094%=      5-min Rain = 0
KLA1 070732Z 31005KT 06/05 A3027 RMK A01 T00610052  RH  094%=      5-min Rain = 0
KLA1 070733Z 35005KT 06/05 A3027 RMK A01 T00610052  RH  094%=      5-min Rain = 0
KLA1 070734Z 33005KT 06/05 A3027 RMK A01 T00600052  RH  094%=      5-min Rain = 0
KLA1 070735Z 34005KT 06/05 A3027 RMK A01 T00600052  RH  095%=      5-min Rain = 0
KLA1 070736Z 34004KT 06/05 A3027 RMK A01 T00600052  RH  095%=      5-min Rain = 0
KLA1 070737Z 01004KT 06/05 A3027 RMK A01 T00590052  RH  095%=      5-min Rain = 0
KLA1 070738Z 00004KT 06/05 A3027 RMK A01 T00590052  RH  095%=      5-min Rain = 0
KLA1 070739Z 36003KT 06/05 A3027 RMK A01 T00590052  RH  095%=      5-min Rain = 0
KLA1 070740Z 34004KT 06/05 A3027 RMK A01 T00580052  RH  096%=      5-min Rain = 0
KLA1 070741Z 35006KT 06/05 A3026 RMK A01 T00590052  RH  096%=      5-min Rain = 0
KLA1 070742Z 35007KT 06/05 A3026 RMK A01 T00590053  RH  096%=      5-min Rain = 0
KLA1 070743Z 01006KT 06/05 A3026 RMK A01 T00590053  RH  096%=      5-min Rain = 0
KLA1 070744Z 36007KT 06/05 A3026 RMK A01 T00580053  RH  096%=      5-min Rain = 0
KLA1 070745Z 00006KT 06/05 A3026 RMK A01 T00580053  RH  096%=      5-min Rain = 0
KLA1 070746Z 36007KT 06/05 A3026 RMK A01 T00580052  RH  096%=      5-min Rain = 0
KLA1 070747Z 36005KT 06/05 A3026 RMK A01 T00580053  RH  096%=      5-min Rain = 0
KLA1 070748Z 35003KT 06/05 A3026 RMK A01 T00580053  RH  097%=      5-min Rain = 0
KLA1 070749Z 01004KT 06/05 A3026 RMK A01 T00580053  RH  097%=      5-min Rain = 0
KLA1 070750Z 01007KT 06/05 A3025 RMK A01 T00580054  RH  097%=      5-min Rain = 0
KLA1 070751Z 35006KT 06/05 A3025 RMK A01 T00580053  RH  097%=      5-min Rain = 0
KLA1 070752Z 34006KT 06/05 A3025 RMK A01 T00580053  RH  097%=      5-min Rain = 0
KLA1 070753Z 34004KT 06/05 A3025 RMK A01 T00580053  RH  097%=      5-min Rain = 0
KLA1 070754Z 35004KT 06/05 A3025 RMK A01 T00580053  RH  097%=      5-min Rain = 0
KLA1 070755Z 35004KT 06/05 A3025 RMK A01 T00580053  RH  097%=      5-min Rain = 0
KLA1 070756Z 34003KT 06/05 A3025 RMK A01 T00580053  RH  097%=      5-min Rain = 0
KLA1 070757Z 34006KT 06/05 A3025 RMK A01 T00570053  RH  097%=      5-min Rain = 0
KLA1 070758Z 00007KT 06/05 A3025 RMK A01 T00570053  RH  097%=      5-min Rain = 0
KLA1 070759Z 02007KT 06/05 A3024 RMK A01 T00570053  RH  097%=      5-min Rain = 0
KLA1 070800Z 02007KT 06/05 A3024 RMK A01 T00570052  RH  097%=      5-min Rain = 0
KLA1 070801Z 01007KT 06/05 A3024 RMK A01 T00570052  RH  097%=      5-min Rain = 0
KLA1 070802Z 36006KT 06/05 A3024 RMK A01 T00570052  RH  096%=      5-min Rain = 0
KLA1 070803Z 35007KT 06/05 A3024 RMK A01 T00570052  RH  096%=      5-min Rain = 0
KLA1 070804Z 36005KT 06/05 A3025 RMK A01 T00570051  RH  096%=      5-min Rain = 0
KLA1 070805Z 34002KT 06/05 A3025 RMK A01 T00570052  RH  096%=      5-min Rain = 0
KLA1 070806Z 26003KT 06/05 A3026 RMK A01 T00570051  RH  096%=      5-min Rain = 0
KLA1 070807Z 26005KT 06/05 A3026 RMK A01 T00580052  RH  096%=      5-min Rain = 0
KLA1 070808Z 29004KT 06/05 A3026 RMK A01 T00580052  RH  096%=      5-min Rain = 0
KLA1 070809Z 29005KT 06/05 A3026 RMK A01 T00580052  RH  096%=      5-min Rain = 0
KLA1 070810Z 28006KT 06/05 A3027 RMK A01 T00580052  RH  096%=      5-min Rain = 0
KLA1 070811Z 27005KT 06/05 A3027 RMK A01 T00580052  RH  096%=      5-min Rain = 0
KLA1 070812Z 27005KT 06/05 A3028 RMK A01 T00580053  RH  096%=      5-min Rain = 0
KLA1 070813Z 28005KT 06/05 A3028 RMK A01 T00580053  RH  097%=      5-min Rain = 0
KLA1 070814Z 30005KT 06/05 A3027 RMK A01 T00570053  RH  097%=      5-min Rain = 0
KLA1 070815Z 33004KT 06/05 A3026 RMK A01 T00570053  RH  097%=      5-min Rain = 0
KLA1 070816Z 36006KT 06/05 A3026 RMK A01 T00570054  RH  098%=      5-min Rain = 0
KLA1 070817Z 34005KT 06/05 A3026 RMK A01 T00570054  RH  098%=      5-min Rain = 0
KLA1 070818Z 35004KT 06/05 A3027 RMK A01 T00560054  RH  098%=      5-min Rain = 0
KLA1 070819Z 35004KT 06/05 A3027 RMK A01 T00560054  RH  099%=      5-min Rain = 0
KLA1 070820Z 34003KT 06/05 A3026 RMK A01 T00560054  RH  099%=      5-min Rain = 0
KLA1 070821Z 32003KT 06/05 A3027 RMK A01 T00560054  RH  099%=      5-min Rain = 0
KLA1 070822Z 31006KT 06/05 A3027 RMK A01 T00560054  RH  099%=      5-min Rain = 0
KLA1 070823Z 32008KT 06/05 A3027 RMK A01 T00560054  RH  099%=      5-min Rain = 0
KLA1 070824Z 32007KT 06/05 A3027 RMK A01 T00550054  RH  099%=      5-min Rain = 0
KLA1 070825Z 34005KT 06/05 A3027 RMK A01 T00550054  RH  099%=      5-min Rain = 0
KLA1 070826Z 35008KT 06/05 A3026 RMK A01 T00550054  RH  099%=      5-min Rain = 0
KLA1 070827Z 34007KT 06/05 A3027 RMK A01 T00550053  RH  099%=      5-min Rain = 0
KLA1 070828Z 32005KT 06/05 A3027 RMK A01 T00550053  RH  099%=      5-min Rain = 0
KLA1 070829Z 34004KT 06/05 A3027 RMK A01 T00550053  RH  099%=      5-min Rain = 0
KLA1 070830Z 35006KT 06/05 A3026 RMK A01 T00550054  RH  099%=      5-min Rain = 0
KLA1 070831Z 35006KT 06/05 A3027 RMK A01 T00550053  RH  099%=      5-min Rain = 0
KLA1 070832Z 33003KT 05/05 A3027 RMK A01 T00540053  RH  099%=      5-min Rain = 0
KLA1 070833Z 00004KT 05/05 A3027 RMK A01 T00540053  RH  099%=      5-min Rain = 0
KLA1 070834Z 00007KT 05/05 A3026 RMK A01 T00540052  RH  099%=      5-min Rain = 0
KLA1 070835Z 34008KT 05/05 A3026 RMK A01 T00540052  RH  098%=      5-min Rain = 0
KLA1 070836Z 34005KT 05/05 A3026 RMK A01 T00540051  RH  098%=      5-min Rain = 0
KLA1 070837Z 35003KT 05/05 A3026 RMK A01 T00540051  RH  098%=      5-min Rain = 0
KLA1 070838Z 36004KT 05/05 A3026 RMK A01 T00540051  RH  098%=      5-min Rain = 0
KLA1 070839Z 00005KT 05/05 A3026 RMK A01 T00540051  RH  098%=      5-min Rain = 0
KLA1 070840Z 36007KT 05/05 A3026 RMK A01 T00540050  RH  098%=      5-min Rain = 0
KLA1 070841Z 01006KT 05/05 A3026 RMK A01 T00530050  RH  098%=      5-min Rain = 0
KLA1 070842Z 00008KT 05/05 A3026 RMK A01 T00530049  RH  097%=      5-min Rain = 0
KLA1 070843Z 34005KT 05/05 A3027 RMK A01 T00530049  RH  097%=      5-min Rain = 0
KLA1 070844Z 35003KT 05/05 A3027 RMK A01 T00530049  RH  097%=      5-min Rain = 0
KLA1 070845Z 35003KT 05/05 A3027 RMK A01 T00530048  RH  097%=      5-min Rain = 0
KLA1 070846Z 33002KT 05/05 A3027 RMK A01 T00530048  RH  097%=      5-min Rain = 0
KLA1 070847Z 34003KT 05/05 A3027 RMK A01 T00530048  RH  097%=      5-min Rain = 0
KLA1 070848Z 31004KT 05/05 A3027 RMK A01 T00530048  RH  097%=      5-min Rain = 0
KLA1 070849Z 31004KT 05/05 A3027 RMK A01 T00530048  RH  097%=      5-min Rain = 0
KLA1 070850Z 33004KT 05/05 A3027 RMK A01 T00530048  RH  097%=      5-min Rain = 0
KLA1 070851Z 34006KT 05/05 A3027 RMK A01 T00530049  RH  097%=      5-min Rain = 0
KLA1 070852Z 35008KT 05/05 A3027 RMK A01 T00530048  RH  097%=      5-min Rain = 0
KLA1 070853Z 35007KT 05/05 A3027 RMK A01 T00530048  RH  097%=      5-min Rain = 0
KLA1 070854Z 33007KT 05/05 A3027 RMK A01 T00530048  RH  097%=      5-min Rain = 0
KLA1 070855Z 32005KT 05/05 A3027 RMK A01 T00530048  RH  097%=      5-min Rain = 0
KLA1 070856Z 32006KT 05/05 A3028 RMK A01 T00530048  RH  097%=      5-min Rain = 0
KLA1 070857Z 32004KT 05/05 A3028 RMK A01 T00530048  RH  097%=      5-min Rain = 0
KLA1 070858Z 34003KT 05/05 A3028 RMK A01 T00530048  RH  097%=      5-min Rain = 0
KLA1 070859Z 02003KT 05/05 A3028 RMK A01 T00530048  RH  097%=      5-min Rain = 0
KLA1 070900Z 01004KT 05/05 A3028 RMK A01 T00530048  RH  097%=      5-min Rain = 0
KLA1 070901Z 31003KT 05/05 A3028 RMK A01 T00530048  RH  097%=      5-min Rain = 0
KLA1 070902Z 31004KT 05/05 A3028 RMK A01 T00530048  RH  096%=      5-min Rain = 0
KLA1 070903Z 31004KT 05/05 A3028 RMK A01 T00530048  RH  096%=      5-min Rain = 0
KLA1 070904Z 33003KT 05/05 A3028 RMK A01 T00530048  RH  096%=      5-min Rain = 0
KLA1 070905Z 34004KT 05/05 A3027 RMK A01 T00530047  RH  096%=      5-min Rain = 0
KLA1 070906Z 34002KT 05/05 A3027 RMK A01 T00530047  RH  096%=      5-min Rain = 0
KLA1 070907Z 36004KT 05/05 A3027 RMK A01 T00530047  RH  096%=      5-min Rain = 0
KLA1 070908Z 01005KT 05/05 A3027 RMK A01 T00530047  RH  096%=      5-min Rain = 0
KLA1 070909Z 02004KT 05/05 A3027 RMK A01 T00530047  RH  096%=      5-min Rain = 0
KLA1 070910Z 02004KT 05/05 A3027 RMK A01 T00530047  RH  096%=      5-min Rain = 0
KLA1 070911Z 01004KT 05/05 A3027 RMK A01 T00530047  RH  096%=      5-min Rain = 0
KLA1 070912Z 01003KT 05/05 A3027 RMK A01 T00530046  RH  096%=      5-min Rain = 0
KLA1 070913Z 01001KT 05/05 A3027 RMK A01 T00530047  RH  096%=      5-min Rain = 0
KLA1 070914Z 31002KT 05/05 A3027 RMK A01 T00530047  RH  096%=      5-min Rain = 0
KLA1 070915Z 31003KT 05/05 A3027 RMK A01 T00530047  RH  096%=      5-min Rain = 0
KLA1 070916Z 30002KT 05/05 A3027 RMK A01 T00530047  RH  096%=      5-min Rain = 0
KLA1 070917Z 01003KT 05/05 A3027 RMK A01 T00530046  RH  096%=      5-min Rain = 0
KLA1 070918Z 01003KT 05/05 A3027 RMK A01 T00530047  RH  096%=      5-min Rain = 0
KLA1 070919Z 00003KT 05/05 A3027 RMK A01 T00540047  RH  096%=      5-min Rain = 0
KLA1 070920Z 32002KT 05/05 A3027 RMK A01 T00530046  RH  095%=      5-min Rain = 0
KLA1 070921Z 30003KT 05/05 A3027 RMK A01 T00540047  RH  095%=      5-min Rain = 0
KLA1 070922Z 32004KT 05/05 A3027 RMK A01 T00540047  RH  095%=      5-min Rain = 0
KLA1 070923Z 33004KT 05/05 A3027 RMK A01 T00540047  RH  095%=      5-min Rain = 0
KLA1 070924Z 33003KT 05/05 A3027 RMK A01 T00540047  RH  095%=      5-min Rain = 0
KLA1 070925Z 33003KT 05/05 A3027 RMK A01 T00540047  RH  095%=      5-min Rain = 0
KLA1 070926Z 32003KT 05/05 A3027 RMK A01 T00540047  RH  095%=      5-min Rain = 0
KLA1 070927Z 33004KT 05/05 A3027 RMK A01 T00540047  RH  095%=      5-min Rain = 0
KLA1 070928Z 34005KT 05/05 A3026 RMK A01 T00540047  RH  095%=      5-min Rain = 0
KLA1 070929Z 34005KT 05/05 A3026 RMK A01 T00540047  RH  095%=      5-min Rain = 0
KLA1 070930Z 36004KT 05/05 A3026 RMK A01 T00530047  RH  095%=      5-min Rain = 0
KLA1 070931Z 34004KT 05/05 A3026 RMK A01 T00540047  RH  096%=      5-min Rain = 0
KLA1 070932Z 36005KT 05/05 A3026 RMK A01 T00530047  RH  095%=      5-min Rain = 0
KLA1 070933Z 01004KT 05/05 A3026 RMK A01 T00540047  RH  095%=      5-min Rain = 0
KLA1 070934Z 35003KT 05/05 A3026 RMK A01 T00540047  RH  095%=      5-min Rain = 0
KLA1 070935Z 32002KT 05/05 A3027 RMK A01 T00540047  RH  095%=      5-min Rain = 0
KLA1 070936Z 32004KT 05/05 A3027 RMK A01 T00540047  RH  095%=      5-min Rain = 0
KLA1 070937Z 31005KT 05/05 A3027 RMK A01 T00540046  RH  095%=      5-min Rain = 0
KLA1 070938Z 31005KT 05/05 A3027 RMK A01 T00530046  RH  095%=      5-min Rain = 0
KLA1 070939Z 31006KT 05/05 A3027 RMK A01 T00540046  RH  095%=      5-min Rain = 0
KLA1 070940Z 32005KT 05/05 A3027 RMK A01 T00540046  RH  095%=      5-min Rain = 0
KLA1 070941Z 31006KT 05/05 A3027 RMK A01 T00540047  RH  095%=      5-min Rain = 0
KLA1 070942Z 33005KT 05/05 A3027 RMK A01 T00530046  RH  095%=      5-min Rain = 0
KLA1 070943Z 33004KT 05/05 A3027 RMK A01 T00530047  RH  096%=      5-min Rain = 0
KLA1 070944Z 34007KT 05/05 A3027 RMK A01 T00540047  RH  096%=      5-min Rain = 0
KLA1 070945Z 35007KT 05/05 A3027 RMK A01 T00530048  RH  096%=      5-min Rain = 0
KLA1 070946Z 32006KT 05/05 A3027 RMK A01 T00530048  RH  096%=      5-min Rain = 0
KLA1 070947Z 32007KT 05/05 A3027 RMK A01 T00530049  RH  097%=      5-min Rain = 0
KLA1 070948Z 33005KT 05/05 A3027 RMK A01 T00530049  RH  098%=      5-min Rain = 0
KLA1 070949Z 34008KT 05/05 A3027 RMK A01 T00530050  RH  098%=      5-min Rain = 0
KLA1 070950Z 35005KT 05/05 A3027 RMK A01 T00530050  RH  098%=      5-min Rain = 0
KLA1 070951Z 35005KT 05/05 A3027 RMK A01 T00520050  RH  099%=      5-min Rain = 0
KLA1 070952Z 00004KT 05/05 A3027 RMK A01 T00520050  RH  099%=      5-min Rain = 0
KLA1 070953Z 00004KT 05/05 A3027 RMK A01 T00520050  RH  099%=      5-min Rain = 0
KLA1 070954Z 01004KT 05/05 A3027 RMK A01 T00520050  RH  099%=      5-min Rain = 0
KLA1 070955Z 00004KT 05/05 A3027 RMK A01 T00520051  RH  099%=      5-min Rain = 0
KLA1 070956Z 00004KT 05/05 A3027 RMK A01 T00520051  RH  099%=      5-min Rain = 0
KLA1 070957Z 35004KT 05/05 A3027 RMK A01 T00520051  RH  099%=      5-min Rain = 0
KLA1 070958Z 32002KT 05/05 A3027 RMK A01 T00510051  RH  099%=      5-min Rain = 0
KLA1 070959Z 31002KT 05/05 A3027 RMK A01 T00520051  RH  100%=      5-min Rain = 0
KLA1 071000Z 00000KT 05/05 A3027 RMK A01 T00510051  RH  100%=      5-min Rain = 0
KLA1 071001Z 25002KT 05/05 A3027 RMK A01 T00510050  RH  099%=      5-min Rain = 0
KLA1 071002Z 27002KT 05/05 A3027 RMK A01 T00510050  RH  099%=      5-min Rain = 0
KLA1 071003Z 27003KT 05/05 A3027 RMK A01 T00510050  RH  099%=      5-min Rain = 0
KLA1 071004Z 29001KT 05/05 A3027 RMK A01 T00520051  RH  100%=      5-min Rain = 0
KLA1 071005Z 28001KT 05/05 A3027 RMK A01 T00520051  RH  100%=      5-min Rain = 0
KLA1 071006Z 30001KT 05/05 A3027 RMK A01 T00520052  RH  100%=      5-min Rain = 0
KLA1 071007Z 32001KT 05/05 A3027 RMK A01 T00520052  RH  100%=      5-min Rain = 0
KLA1 071008Z 30002KT 05/05 A3027 RMK A01 T00520052  RH  100%=      5-min Rain = 0
KLA1 071009Z 35002KT 05/05 A3027 RMK A01 T00520051  RH  100%=      5-min Rain = 0
KLA1 071010Z 35003KT 05/05 A3027 RMK A01 T00520051  RH  100%=      5-min Rain = 0
KLA1 071011Z 00003KT 05/05 A3027 RMK A01 T00520051  RH  100%=      5-min Rain = 0
KLA1 071012Z 01004KT 05/05 A3027 RMK A01 T00510051  RH  100%=      5-min Rain = 0
KLA1 071013Z 02004KT 05/05 A3027 RMK A01 T00520051  RH  100%=      5-min Rain = 0.01
KLA1 071014Z 03006KT 05/05 A3027 RMK A01 T00520051  RH  100%=      5-min Rain = 0.01
KLA1 071015Z 04006KT 05/05 A3026 RMK A01 T00510051  RH  100%=      5-min Rain = 0.01
KLA1 071016Z 02006KT 05/05 A3026 RMK A01 T00510050  RH  099%=      5-min Rain = 0.01
KLA1 071017Z 02007KT 05/05 A3026 RMK A01 T00510050  RH  100%=      5-min Rain = 0.01
KLA1 071018Z 03007KT 05/05 A3026 RMK A01 T00510050  RH  100%=      5-min Rain = 0
KLA1 071019Z 02008KT 05/05 A3025 RMK A01 T00510051  RH  100%=      5-min Rain = 0
KLA1 071020Z 01009KT 05/05 A3025 RMK A01 T00500050  RH  100%=      5-min Rain = 0
KLA1 071021Z 01009KT 05/05 A3025 RMK A01 T00510051  RH  100%=      5-min Rain = 0
KLA1 071022Z 01009KT 05/05 A3025 RMK A01 T00510051  RH  100%=      5-min Rain = 0
KLA1 071023Z 02007KT 05/05 A3025 RMK A01 T00510051  RH  100%=      5-min Rain = 0
KLA1 071024Z 02005KT 05/05 A3025 RMK A01 T00510051  RH  100%=      5-min Rain = 0
KLA1 071025Z 04006KT 05/05 A3025 RMK A01 T00510051  RH  100%=      5-min Rain = 0
KLA1 071026Z 01007G13KT 05/05 A3025 RMK A01 T00510051  RH  100%=      5-min Rain = 0.01
KLA1 071027Z 01007KT 05/05 A3025 RMK A01 T00510051  RH  100%=      5-min Rain = 0
KLA1 071028Z 02006KT 05/05 A3025 RMK A01 T00510051  RH  100%=      5-min Rain = 0
KLA1 071029Z 02005KT 05/05 A3025 RMK A01 T00510051  RH  100%=      5-min Rain = 0.01
KLA1 071030Z 04002KT 05/05 A3026 RMK A01 T00510051  RH  100%=      5-min Rain = 0
KLA1 071031Z 13002KT 05/05 A3026 RMK A01 T00510051  RH  100%=      5-min Rain = 0.01
KLA1 071032Z 10004KT 05/05 A3026 RMK A01 T00510051  RH  100%=      5-min Rain = 0
KLA1 071033Z 14006KT 05/05 A3026 RMK A01 T00520052  RH  100%=      5-min Rain = 0
KLA1 071034Z 15005KT 05/05 A3025 RMK A01 T00520052  RH  100%=      5-min Rain = 0.01
KLA1 071035Z 13002KT 05/05 A3025 RMK A01 T00520052  RH  100%=      5-min Rain = 0
KLA1 071036Z 02001KT 05/05 A3025 RMK A01 T00530053  RH  100%=      5-min Rain = 0
KLA1 071037Z 02000KT 05/05 A3025 RMK A01 T00530053  RH  100%=      5-min Rain = 0.01
KLA1 071038Z 21000KT 05/05 A3025 RMK A01 T00530053  RH  100%=      5-min Rain = 0
KLA1 071039Z 00002KT 05/05 A3025 RMK A01 T00530053  RH  100%=      5-min Rain = 0
KLA1 071040Z 35005KT 05/05 A3025 RMK A01 T00530053  RH  100%=      5-min Rain = 0
KLA1 071041Z 29003KT 05/05 A3025 RMK A01 T00530053  RH  100%=      5-min Rain = 0
KLA1 071042Z 30003KT 05/05 A3025 RMK A01 T00530053  RH  100%=      5-min Rain = 0
KLA1 071043Z 32002KT 05/05 A3025 RMK A01 T00530053  RH  100%=      5-min Rain = 0.01
KLA1 071044Z 01003KT 05/05 A3025 RMK A01 T00530053  RH  100%=      5-min Rain = 0
KLA1 071045Z 00006KT 05/05 A3025 RMK A01 T00530053  RH  100%=      5-min Rain = 0
KLA1 071046Z 35004KT 05/05 A3025 RMK A01 T00530053  RH  100%=      5-min Rain = 0
KLA1 071047Z 34006KT 05/05 A3025 RMK A01 T00530053  RH  100%=      5-min Rain = 0
KLA1 071048Z 31005KT 05/05 A3025 RMK A01 T00530053  RH  100%=      5-min Rain = 0.01
KLA1 071049Z 34004KT 05/05 A3025 RMK A01 T00530053  RH  100%=      5-min Rain = 0
KLA1 071050Z 32003KT 05/05 A3025 RMK A01 T00530053  RH  100%=      5-min Rain = 0
KLA1 071051Z 31002KT 05/05 A3025 RMK A01 T00540053  RH  100%=      5-min Rain = 0
KLA1 071052Z 31002KT 05/05 A3025 RMK A01 T00530053  RH  100%=      5-min Rain = 0.01
KLA1 071053Z 34003KT 05/05 A3025 RMK A01 T00540053  RH  100%=      5-min Rain = 0
KLA1 071054Z 33003KT 05/05 A3025 RMK A01 T00540054  RH  100%=      5-min Rain = 0
KLA1 071055Z 32002KT 05/05 A3025 RMK A01 T00530053  RH  100%=      5-min Rain = 0.01
KLA1 071056Z 32003KT 05/05 A3026 RMK A01 T00530053  RH  100%=      5-min Rain = 0
KLA1 071057Z 30003KT 05/05 A3026 RMK A01 T00520052  RH  100%=      5-min Rain = 0
KLA1 071058Z 30003KT 05/05 A3026 RMK A01 T00530053  RH  100%=      5-min Rain = 0
KLA1 071059Z 32003KT 05/05 A3026 RMK A01 T00530052  RH  100%=      5-min Rain = 0.01
KLA1 071100Z 34002KT 05/05 A3026 RMK A01 T00530053  RH  100%=      5-min Rain = 0
KLA1 071101Z 34001KT 05/05 A3026 RMK A01 T00520052  RH  100%=      5-min Rain = 0.01
KLA1 071102Z 25001KT 05/05 A3026 RMK A01 T00520052  RH  100%=      5-min Rain = 0
KLA1 071103Z 28001KT 05/05 A3026 RMK A01 T00520052  RH  100%=      5-min Rain = 0
KLA1 071104Z 29002KT 05/05 A3027 RMK A01 T00520052  RH  100%=      5-min Rain = 0
KLA1 071105Z 28001KT 05/05 A3027 RMK A01 T00520052  RH  100%=      5-min Rain = 0
KLA1 071106Z 28002KT 05/05 A3027 RMK A01 T00520052  RH  100%=      5-min Rain = 0
KLA1 071107Z 29001KT 05/05 A3027 RMK A01 T00520052  RH  100%=      5-min Rain = 0.01
KLA1 071108Z 30001KT 05/05 A3027 RMK A01 T00520052  RH  100%=      5-min Rain = 0
KLA1 071109Z 30000KT 05/05 A3027 RMK A01 T00520052  RH  100%=      5-min Rain = 0
KLA1 071110Z 00000KT 05/05 A3027 RMK A01 T00520052  RH  100%=      5-min Rain = 0
KLA1 071111Z 00000KT 05/05 A3027 RMK A01 T00520052  RH  100%=      5-min Rain = 0
KLA1 071112Z 00000KT 05/05 A3027 RMK A01 T00520052  RH  100%=      5-min Rain = 0.01
KLA1 071113Z 01003KT 05/05 A3027 RMK A01 T00520052  RH  100%=      5-min Rain = 0
KLA1 071114Z 02003KT 05/05 A3027 RMK A01 T00520052  RH  100%=      5-min Rain = 0
KLA1 071115Z 02003KT 05/05 A3027 RMK A01 T00520052  RH  100%=      5-min Rain = 0
KLA1 071116Z 01001KT 05/05 A3027 RMK A01 T00520052  RH  100%=      5-min Rain = 0.01
KLA1 071117Z 01002KT 05/05 A3027 RMK A01 T00520052  RH  100%=      5-min Rain = 0
KLA1 071118Z 01002KT 05/05 A3027 RMK A01 T00520051  RH  100%=      5-min Rain = 0
KLA1 071119Z 02002KT 05/05 A3027 RMK A01 T00520051  RH  100%=      5-min Rain = 0
KLA1 071120Z 35003KT 05/05 A3027 RMK A01 T00520052  RH  100%=      5-min Rain = 0.01
KLA1 071121Z 33002KT 05/05 A3027 RMK A01 T00520052  RH  100%=      5-min Rain = 0
KLA1 071122Z 32002KT 05/05 A3027 RMK A01 T00520052  RH  100%=      5-min Rain = 0
KLA1 071123Z 29001KT 05/05 A3027 RMK A01 T00520052  RH  100%=      5-min Rain = 0.01
KLA1 071124Z 29001KT 05/05 A3027 RMK A01 T00520051  RH  100%=      5-min Rain = 0
KLA1 071125Z 34003KT 05/05 A3027 RMK A01 T00520051  RH  100%=      5-min Rain = 0
KLA1 071126Z 35004KT 05/05 A3027 RMK A01 T00520052  RH  100%=      5-min Rain = 0.01
KLA1 071127Z 00004KT 05/05 A3027 RMK A01 T00520052  RH  100%=      5-min Rain = 0
KLA1 071128Z 35004KT 05/05 A3027 RMK A01 T00520052  RH  100%=      5-min Rain = 0.01
KLA1 071129Z 32003KT 05/05 A3027 RMK A01 T00520052  RH  100%=      5-min Rain = 0
KLA1 071130Z 32003KT 05/05 A3027 RMK A01 T00520052  RH  100%=      5-min Rain = 0.01
KLA1 071131Z 32003KT 05/05 A3027 RMK A01 T00520052  RH  100%=      5-min Rain = 0
KLA1 071132Z 35002KT 05/05 A3027 RMK A01 T00520052  RH  100%=      5-min Rain = 0.01
KLA1 071133Z 34002KT 05/05 A3027 RMK A01 T00510051  RH  100%=      5-min Rain = 0
KLA1 071134Z 35001KT 05/05 A3027 RMK A01 T00510051  RH  100%=      5-min Rain = 0
KLA1 071135Z 01001KT 05/05 A3027 RMK A01 T00510051  RH  100%=      5-min Rain = 0.01
KLA1 071136Z 00000KT 05/05 A3027 RMK A01 T00510050  RH  100%=      5-min Rain = 0
KLA1 071137Z 00000KT 05/05 A3027 RMK A01 T00510051  RH  100%=      5-min Rain = 0
KLA1 071138Z 34000KT 05/05 A3027 RMK A01 T00510051  RH  100%=      5-min Rain = 0.01
KLA1 071139Z 35000KT 05/05 A3027 RMK A01 T00510051  RH  100%=      5-min Rain = 0.01
KLA1 071140Z 02001KT 05/05 A3027 RMK A01 T00510051  RH  100%=      5-min Rain = 0
KLA1 071141Z 01002KT 05/05 A3027 RMK A01 T00500050  RH  100%=      5-min Rain = 0
KLA1 071142Z 01001KT 05/05 A3027 RMK A01 T00500050  RH  100%=      5-min Rain = 0.01
KLA1 071143Z 00000KT 05/05 A3027 RMK A01 T00500050  RH  100%=      5-min Rain = 0
KLA1 071144Z 33000KT 05/05 A3027 RMK A01 T00500050  RH  100%=      5-min Rain = 0
KLA1 071145Z 32001KT 05/05 A3027 RMK A01 T00500050  RH  100%=      5-min Rain = 0
KLA1 071146Z 34002KT 05/05 A3027 RMK A01 T00500050  RH  100%=      5-min Rain = 0.01
KLA1 071147Z 36003KT 05/05 A3027 RMK A01 T00500050  RH  100%=      5-min Rain = 0
KLA1 071148Z 02004KT 05/05 A3027 RMK A01 T00500050  RH  100%=      5-min Rain = 0
KLA1 071149Z 03004KT 05/05 A3027 RMK A01 T00500050  RH  100%=      5-min Rain = 0
KLA1 071150Z 04004KT 05/05 A3027 RMK A01 T00500050  RH  100%=      5-min Rain = 0
KLA1 071151Z 03004KT 05/05 A3027 RMK A01 T00500050  RH  100%=      5-min Rain = 0.01
KLA1 071152Z 03003KT 05/05 A3027 RMK A01 T00500050  RH  100%=      5-min Rain = 0
KLA1 071153Z 02002KT 05/05 A3027 RMK A01 T00500050  RH  100%=      5-min Rain = 0
KLA1 071154Z 36002KT 05/05 A3027 RMK A01 T00500050  RH  100%=      5-min Rain = 0
KLA1 071155Z 34002KT 05/05 A3027 RMK A01 T00500050  RH  100%=      5-min Rain = 0
KLA1 071156Z 33002KT 05/05 A3026 RMK A01 T00500050  RH  100%=      5-min Rain = 0
KLA1 071157Z 34001KT 05/05 A3026 RMK A01 T00510050  RH  100%=      5-min Rain = 0.01
KLA1 071158Z 34001KT 05/05 A3026 RMK A01 T00500050  RH  100%=      5-min Rain = 0
KLA1 071159Z 34002KT 05/05 A3026 RMK A01 T00500050  RH  100%=      5-min Rain = 0
KLA1 071200Z 35003KT 05/05 A3026 RMK A01 T00500050  RH  100%=      5-min Rain = 0
KLA1 071201Z 31002KT 05/05 A3027 RMK A01 T00500050  RH  100%=      5-min Rain = 0
KLA1 071202Z 30002KT 05/05 A3026 RMK A01 T00500050  RH  100%=      5-min Rain = 0
KLA1 071203Z 30002KT 05/05 A3026 RMK A01 T00510051  RH  100%=      5-min Rain = 0
KLA1 071204Z 32002KT 05/05 A3026 RMK A01 T00510051  RH  100%=      5-min Rain = 0
KLA1 071205Z 33003KT 05/05 A3026 RMK A01 T00510051  RH  100%=      5-min Rain = 0.01
KLA1 071206Z 34004KT 05/05 A3026 RMK A01 T00500050  RH  100%=      5-min Rain = 0
KLA1 071207Z 33005KT 05/05 A3026 RMK A01 T00500050  RH  100%=      5-min Rain = 0
KLA1 071208Z 32005KT 05/05 A3026 RMK A01 T00510051  RH  100%=      5-min Rain = 0
KLA1 071209Z 31002KT 05/05 A3026 RMK A01 T00500050  RH  100%=      5-min Rain = 0
KLA1 071210Z 35003KT 05/05 A3026 RMK A01 T00510050  RH  100%=      5-min Rain = 0
KLA1 071211Z 35004KT 05/05 A3026 RMK A01 T00500050  RH  100%=      5-min Rain = 0.01
KLA1 071212Z 35003KT 05/05 A3027 RMK A01 T00500050  RH  100%=      5-min Rain = 0
KLA1 071213Z 34002KT 05/05 A3027 RMK A01 T00500050  RH  100%=      5-min Rain = 0
KLA1 071214Z 33003KT 05/05 A3027 RMK A01 T00500050  RH  100%=      5-min Rain = 0
KLA1 071215Z 34003KT 05/05 A3027 RMK A01 T00500050  RH  100%=      5-min Rain = 0
KLA1 071216Z 01004KT 05/05 A3027 RMK A01 T00500049  RH  099%=      5-min Rain = 0
KLA1 071217Z 04002KT 05/05 A3027 RMK A01 T00500049  RH  099%=      5-min Rain = 0
KLA1 071218Z 02002KT 05/05 A3027 RMK A01 T00500049  RH  099%=      5-min Rain = 0.01
KLA1 071219Z 06000KT 05/05 A3027 RMK A01 T00500049  RH  099%=      5-min Rain = 0
KLA1 071220Z 00000KT 05/05 A3027 RMK A01 T00500049  RH  099%=      5-min Rain = 0
KLA1 071221Z 05000KT 05/05 A3027 RMK A01 T00500049  RH  099%=      5-min Rain = 0
KLA1 071222Z 05000KT 05/05 A3027 RMK A01 T00500049  RH  099%=      5-min Rain = 0
KLA1 071223Z 01001KT 05/05 A3027 RMK A01 T00510049  RH  099%=      5-min Rain = 0
KLA1 071224Z 01002KT 05/05 A3027 RMK A01 T00510050  RH  099%=      5-min Rain = 0
KLA1 071225Z 35003KT 05/05 A3028 RMK A01 T00500049  RH  099%=      5-min Rain = 0
KLA1 071226Z 00003KT 05/05 A3028 RMK A01 T00500048  RH  099%=      5-min Rain = 0.01
KLA1 071227Z 01000KT 05/05 A3028 RMK A01 T00500049  RH  099%=      5-min Rain = 0
KLA1 071228Z 34001KT 05/05 A3028 RMK A01 T00510049  RH  099%=      5-min Rain = 0
KLA1 071229Z 36000KT 05/05 A3028 RMK A01 T00500049  RH  099%=      5-min Rain = 0
KLA1 071230Z 34003KT 05/05 A3028 RMK A01 T00500049  RH  099%=      5-min Rain = 0
KLA1 071231Z 34003KT 05/05 A3028 RMK A01 T00500049  RH  099%=      5-min Rain = 0
KLA1 071232Z 35004KT 05/05 A3028 RMK A01 T00500049  RH  099%=      5-min Rain = 0
KLA1 071233Z 33003KT 05/05 A3028 RMK A01 T00500049  RH  099%=      5-min Rain = 0.01
KLA1 071234Z 33002KT 05/05 A3028 RMK A01 T00500049  RH  099%=      5-min Rain = 0
KLA1 071235Z 28001KT 05/05 A3028 RMK A01 T00500049  RH  099%=      5-min Rain = 0
KLA1 071236Z 27002KT 05/05 A3028 RMK A01 T00500049  RH  099%=      5-min Rain = 0
KLA1 071237Z 28003KT 05/05 A3028 RMK A01 T00500049  RH  099%=      5-min Rain = 0
KLA1 071238Z 28004KT 05/05 A3028 RMK A01 T00510050  RH  100%=      5-min Rain = 0
KLA1 071239Z 29004KT 05/05 A3028 RMK A01 T00510050  RH  100%=      5-min Rain = 0
KLA1 071240Z 30003KT 05/05 A3028 RMK A01 T00510050  RH  100%=      5-min Rain = 0.01
KLA1 071241Z 29003KT 05/05 A3028 RMK A01 T00510051  RH  100%=      5-min Rain = 0
KLA1 071242Z 29004KT 05/05 A3028 RMK A01 T00510051  RH  100%=      5-min Rain = 0
KLA1 071243Z 31004KT 05/05 A3028 RMK A01 T00510051  RH  100%=      5-min Rain = 0
KLA1 071244Z 32004KT 05/05 A3028 RMK A01 T00510051  RH  100%=      5-min Rain = 0
KLA1 071245Z 32003KT 05/05 A3028 RMK A01 T00510051  RH  100%=      5-min Rain = 0
KLA1 071246Z 34004KT 05/05 A3028 RMK A01 T00510051  RH  100%=      5-min Rain = 0
KLA1 071247Z 34004KT 05/05 A3028 RMK A01 T00500050  RH  100%=      5-min Rain = 0
KLA1 071248Z 32003KT 05/05 A3028 RMK A01 T00500050  RH  100%=      5-min Rain = 0
KLA1 071249Z 32004KT 05/05 A3028 RMK A01 T00500050  RH  100%=      5-min Rain = 0.01
KLA1 071250Z 35004KT 05/05 A3027 RMK A01 T00500050  RH  100%=      5-min Rain = 0
KLA1 071251Z 34003KT 05/05 A3027 RMK A01 T00510051  RH  100%=      5-min Rain = 0
KLA1 071252Z 35002KT 05/05 A3027 RMK A01 T00510051  RH  100%=      5-min Rain = 0
KLA1 071253Z 36003KT 05/05 A3027 RMK A01 T00500050  RH  100%=      5-min Rain = 0
KLA1 071254Z 36003KT 05/05 A3027 RMK A01 T00500050  RH  100%=      5-min Rain = 0
KLA1 071255Z 36002KT 05/05 A3027 RMK A01 T00500050  RH  100%=      5-min Rain = 0.01
KLA1 071256Z 02002KT 05/05 A3027 RMK A01 T00500050  RH  100%=      5-min Rain = 0
KLA1 071257Z 00000KT 05/05 A3027 RMK A01 T00500050  RH  100%=      5-min Rain = 0
KLA1 071258Z 03000KT 05/05 A3027 RMK A01 T00500050  RH  100%=      5-min Rain = 0
KLA1 071259Z 02002KT 05/05 A3027 RMK A01 T00500050  RH  100%=      5-min Rain = 0
KLA1 071300Z 36003KT 05/05 A3027 RMK A01 T00490049  RH  100%=      5-min Rain = 0
KLA1 071301Z 01003KT 05/05 A3027 RMK A01 T00490049  RH  100%=      5-min Rain = 0.01
KLA1 071302Z 02003KT 05/05 A3027 RMK A01 T00490049  RH  100%=      5-min Rain = 0
KLA1 071303Z 01004KT 05/05 A3027 RMK A01 T00490049  RH  100%=      5-min Rain = 0
KLA1 071304Z 02004KT 05/05 A3027 RMK A01 T00490049  RH  100%=      5-min Rain = 0
KLA1 071305Z 01004KT 05/05 A3027 RMK A01 T00490049  RH  100%=      5-min Rain = 0
KLA1 071306Z 36003KT 05/05 A3027 RMK A01 T00490049  RH  100%=      5-min Rain = 0.01
KLA1 071307Z 01002KT 05/05 A3027 RMK A01 T00490049  RH  100%=      5-min Rain = 0
KLA1 071308Z 04002KT 05/05 A3027 RMK A01 T00490049  RH  100%=      5-min Rain = 0
KLA1 071309Z 01002KT 05/05 A3027 RMK A01 T00490049  RH  100%=      5-min Rain = 0
KLA1 071310Z 02002KT 05/05 A3027 RMK A01 T00490049  RH  100%=      5-min Rain = 0
KLA1 071311Z 35003KT 05/05 A3027 RMK A01 T00500049  RH  100%=      5-min Rain = 0
KLA1 071312Z 33002KT 05/05 A3027 RMK A01 T00500050  RH  100%=      5-min Rain = 0
KLA1 071313Z 31002KT 05/05 A3027 RMK A01 T00500050  RH  100%=      5-min Rain = 0.01
KLA1 071314Z 33002KT 05/05 A3027 RMK A01 T00500050  RH  100%=      5-min Rain = 0
KLA1 071315Z 34002KT 05/05 A3027 RMK A01 T00500050  RH  100%=      5-min Rain = 0
KLA1 071316Z 33003KT 05/05 A3027 RMK A01 T00500050  RH  100%=      5-min Rain = 0
KLA1 071317Z 33003KT 05/05 A3027 RMK A01 T00510051  RH  100%=      5-min Rain = 0
KLA1 071318Z 34004KT 05/05 A3027 RMK A01 T00500050  RH  100%=      5-min Rain = 0
KLA1 071319Z 33004KT 05/05 A3027 RMK A01 T00500050  RH  100%=      5-min Rain = 0
KLA1 071320Z 33005KT 05/05 A3027 RMK A01 T00500050  RH  100%=      5-min Rain = 0
KLA1 071321Z 34005KT 05/05 A3027 RMK A01 T00500050  RH  100%=      5-min Rain = 0
KLA1 071322Z 33004KT 05/05 A3027 RMK A01 T00500050  RH  100%=      5-min Rain = 0
KLA1 071323Z 32004KT 05/05 A3027 RMK A01 T00500050  RH  100%=      5-min Rain = 0.01
KLA1 071324Z 32004KT 05/05 A3027 RMK A01 T00510051  RH  100%=      5-min Rain = 0
KLA1 071325Z 32004KT 05/05 A3027 RMK A01 T00510051  RH  100%=      5-min Rain = 0
KLA1 071326Z 32004KT 05/05 A3027 RMK A01 T00510051  RH  100%=      5-min Rain = 0
KLA1 071327Z 33005KT 05/05 A3027 RMK A01 T00510051  RH  100%=      5-min Rain = 0
KLA1 071328Z 34005KT 05/05 A3027 RMK A01 T00510051  RH  100%=      5-min Rain = 0
KLA1 071329Z 33005KT 05/05 A3027 RMK A01 T00510051  RH  100%=      5-min Rain = 0
KLA1 071330Z 32006KT 05/05 A3027 RMK A01 T00510051  RH  100%=      5-min Rain = 0.01
KLA1 071331Z 34007KT 05/05 A3027 RMK A01 T00510051  RH  100%=      5-min Rain = 0
KLA1 071332Z 33004KT 05/05 A3028 RMK A01 T00500050  RH  100%=      5-min Rain = 0
KLA1 071333Z 32006KT 05/05 A3028 RMK A01 T00500050  RH  100%=      5-min Rain = 0
KLA1 071334Z 33005KT 05/05 A3028 RMK A01 T00500050  RH  100%=      5-min Rain = 0
KLA1 071335Z 33004KT 05/05 A3028 RMK A01 T00500050  RH  100%=      5-min Rain = 0
KLA1 071336Z 31004KT 05/05 A3028 RMK A01 T00500050  RH  100%=      5-min Rain = 0.01
KLA1 071337Z 31003KT 05/05 A3028 RMK A01 T00500050  RH  100%=      5-min Rain = 0
KLA1 071338Z 30004KT 05/05 A3028 RMK A01 T00500050  RH  100%=      5-min Rain = 0
KLA1 071339Z 30003KT 05/05 A3028 RMK A01 T00500050  RH  100%=      5-min Rain = 0
KLA1 071340Z 31003KT 05/05 A3028 RMK A01 T00500050  RH  100%=      5-min Rain = 0
KLA1 071341Z 31002KT 05/05 A3029 RMK A01 T00500050  RH  100%=      5-min Rain = 0.01
KLA1 071342Z 35004KT 05/05 A3029 RMK A01 T00510051  RH  100%=      5-min Rain = 0
KLA1 071343Z 33004KT 05/05 A3029 RMK A01 T00510051  RH  100%=      5-min Rain = 0
KLA1 071344Z 34006KT 05/05 A3029 RMK A01 T00510051  RH  100%=      5-min Rain = 0
KLA1 071345Z 34007KT 05/05 A3029 RMK A01 T00500050  RH  100%=      5-min Rain = 0.01
KLA1 071346Z 33005KT 05/05 A3029 RMK A01 T00500050  RH  100%=      5-min Rain = 0
KLA1 071347Z 32003KT 05/05 A3029 RMK A01 T00500050  RH  100%=      5-min Rain = 0
KLA1 071348Z 35003KT 05/05 A3029 RMK A01 T00500050  RH  100%=      5-min Rain = 0.01
KLA1 071349Z 31002KT 05/05 A3029 RMK A01 T00500050  RH  100%=      5-min Rain = 0
KLA1 071350Z 34002KT 05/05 A3029 RMK A01 T00500050  RH  100%=      5-min Rain = 0
KLA1 071351Z 34003KT 05/05 A3029 RMK A01 T00500050  RH  100%=      5-min Rain = 0.01
KLA1 071352Z 31004KT 05/05 A3029 RMK A01 T00500050  RH  100%=      5-min Rain = 0
KLA1 071353Z 34003KT 05/05 A3029 RMK A01 T00500050  RH  100%=      5-min Rain = 0
KLA1 071354Z 31004KT 05/05 A3029 RMK A01 T00500050  RH  100%=      5-min Rain = 0
KLA1 071355Z 33002KT 05/05 A3029 RMK A01 T00500050  RH  100%=      5-min Rain = 0.01
KLA1 071356Z 33001KT 05/05 A3029 RMK A01 T00500050  RH  100%=      5-min Rain = 0
KLA1 071357Z 35002KT 05/05 A3029 RMK A01 T00500050  RH  100%=      5-min Rain = 0.01
KLA1 071358Z 32003KT 05/05 A3029 RMK A01 T00500050  RH  100%=      5-min Rain = 0
KLA1 071359Z 33003KT 05/05 A3029 RMK A01 T00500050  RH  100%=      5-min Rain = 0
KLA1 071400Z 32003KT 05/05 A3029 RMK A01 T00500050  RH  100%=      5-min Rain = 0
KLA1 071401Z 33003KT 05/05 A3029 RMK A01 T00500050  RH  100%=      5-min Rain = 0.01
KLA1 071402Z 31004KT 05/05 A3029 RMK A01 T00500050  RH  100%=      5-min Rain = 0
KLA1 071403Z 33003KT 05/05 A3029 RMK A01 T00500050  RH  100%=      5-min Rain = 0
KLA1 071404Z 33003KT 05/05 A3029 RMK A01 T00500050  RH  100%=      5-min Rain = 0
KLA1 071405Z 35002KT 05/05 A3029 RMK A01 T00500050  RH  100%=      5-min Rain = 0.01
KLA1 071406Z 35003KT 05/05 A3029 RMK A01 T00500050  RH  100%=      5-min Rain = 0
KLA1 071407Z 35003KT 05/05 A3028 RMK A01 T00510051  RH  100%=      5-min Rain = 0
KLA1 071408Z 36002KT 05/05 A3028 RMK A01 T00500050  RH  100%=      5-min Rain = 0
KLA1 071409Z 00002KT 05/05 A3029 RMK A01 T00500050  RH  100%=      5-min Rain = 0
KLA1 071410Z 00000KT 05/05 A3029 RMK A01 T00500050  RH  100%=      5-min Rain = 0.01
KLA1 071411Z 35000KT 05/05 A3029 RMK A01 T00500050  RH  100%=      5-min Rain = 0
KLA1 071412Z 35000KT 05/05 A3029 RMK A01 T00510051  RH  100%=      5-min Rain = 0
KLA1 071413Z 36000KT 05/05 A3029 RMK A01 T00500050  RH  100%=      5-min Rain = 0
KLA1 071414Z 00000KT 05/05 A3029 RMK A01 T00500050  RH  100%=      5-min Rain = 0.01
KLA1 071415Z 03000KT 05/05 A3029 RMK A01 T00500050  RH  100%=      5-min Rain = 0
KLA1 071416Z 02001KT 05/05 A3029 RMK A01 T00500050  RH  100%=      5-min Rain = 0
KLA1 071417Z 02000KT 05/05 A3029 RMK A01 T00500050  RH  100%=      5-min Rain = 0
KLA1 071418Z 36001KT 05/05 A3029 RMK A01 T00500050  RH  100%=      5-min Rain = 0
KLA1 071419Z 33001KT 05/05 A3029 RMK A01 T00500050  RH  100%=      5-min Rain = 0.01
KLA1 071420Z 33001KT 05/05 A3029 RMK A01 T00500050  RH  100%=      5-min Rain = 0
KLA1 071421Z 35002KT 05/05 A3029 RMK A01 T00510051  RH  100%=      5-min Rain = 0
KLA1 071422Z 35003KT 05/05 A3029 RMK A01 T00510051  RH  100%=      5-min Rain = 0.01
KLA1 071423Z 35002KT 05/05 A3029 RMK A01 T00510051  RH  100%=      5-min Rain = 0
KLA1 071424Z 00002KT 05/05 A3029 RMK A01 T00510051  RH  100%=      5-min Rain = 0
KLA1 071425Z 00002KT 05/05 A3029 RMK A01 T00510051  RH  100%=      5-min Rain = 0
KLA1 071426Z 02004KT 05/05 A3029 RMK A01 T00510051  RH  100%=      5-min Rain = 0
KLA1 071427Z 02004KT 05/05 A3029 RMK A01 T00510051  RH  100%=      5-min Rain = 0.01
KLA1 071428Z 01003KT 05/05 A3029 RMK A01 T00510051  RH  100%=      5-min Rain = 0
KLA1 071429Z 02002KT 05/05 A3029 RMK A01 T00510051  RH  100%=      5-min Rain = 0
KLA1 071430Z 01003KT 05/05 A3029 RMK A01 T00510051  RH  100%=      5-min Rain = 0
KLA1 071431Z 01004KT 05/05 A3029 RMK A01 T00510051  RH  100%=      5-min Rain = 0
KLA1 071432Z 02002KT 05/05 A3029 RMK A01 T00510051  RH  100%=      5-min Rain = 0.01
KLA1 071433Z 02003KT 05/05 A3029 RMK A01 T00510051  RH  100%=      5-min Rain = 0
KLA1 071434Z 34003KT 05/05 A3029 RMK A01 T00510051  RH  100%=      5-min Rain = 0
KLA1 071435Z 35004KT 05/05 A3029 RMK A01 T00510051  RH  100%=      5-min Rain = 0
KLA1 071436Z 35003KT 05/05 A3029 RMK A01 T00510050  RH  099%=      5-min Rain = 0
KLA1 071437Z 31001KT 05/05 A3029 RMK A01 T00510050  RH  099%=      5-min Rain = 0.01
KLA1 071438Z 31002KT 05/05 A3029 RMK A01 T00510050  RH  099%=      5-min Rain = 0
KLA1 071439Z 36000KT 05/05 A3029 RMK A01 T00510050  RH  099%=      5-min Rain = 0
KLA1 071440Z 00000KT 05/05 A3029 RMK A01 T00520051  RH  100%=      5-min Rain = 0.01
KLA1 071441Z 04001KT 05/05 A3029 RMK A01 T00520051  RH  100%=      5-min Rain = 0
KLA1 071442Z 02000KT 05/05 A3029 RMK A01 T00520051  RH  100%=      5-min Rain = 0
KLA1 071443Z 00000KT 05/05 A3029 RMK A01 T00520052  RH  100%=      5-min Rain = 0.01
KLA1 071444Z 10000KT 05/05 A3029 RMK A01 T00520052  RH  100%=      5-min Rain = 0
KLA1 071445Z 25001KT 05/05 A3029 RMK A01 T00520052  RH  100%=      5-min Rain = 0
KLA1 071446Z 27001KT 05/05 A3029 RMK A01 T00520052  RH  100%=      5-min Rain = 0
KLA1 071447Z 31000KT 05/05 A3029 RMK A01 T00520052  RH  100%=      5-min Rain = 0.01
KLA1 071448Z 30000KT 05/05 A3029 RMK A01 T00520052  RH  100%=      5-min Rain = 0
KLA1 071449Z 36001KT 05/05 A3029 RMK A01 T00520052  RH  100%=      5-min Rain = 0
KLA1 071450Z 35003KT 05/05 A3029 RMK A01 T00520052  RH  100%=      5-min Rain = 0
KLA1 071451Z 33001KT 05/05 A3029 RMK A01 T00520052  RH  100%=      5-min Rain = 0.01
KLA1 071452Z 31000KT 05/05 A3029 RMK A01 T00520052  RH  100%=      5-min Rain = 0
KLA1 071453Z 32000KT 05/05 A3029 RMK A01 T00520051  RH  100%=      5-min Rain = 0
KLA1 071454Z 05000KT 05/05 A3029 RMK A01 T00510051  RH  100%=      5-min Rain = 0.01
KLA1 071455Z 08000KT 05/05 A3029 RMK A01 T00510051  RH  100%=      5-min Rain = 0
KLA1 071456Z 10001KT 05/05 A3029 RMK A01 T00520051  RH  100%=      5-min Rain = 0
KLA1 071457Z 06001KT 05/05 A3029 RMK A01 T00520051  RH  100%=      5-min Rain = 0
KLA1 071458Z 08000KT 05/05 A3029 RMK A01 T00520051  RH  100%=      5-min Rain = 0.01
KLA1 071459Z 08000KT 05/05 A3029 RMK A01 T00520052  RH  100%=      5-min Rain = 0
KLA1 071500Z 01001KT 05/05 A3029 RMK A01 T00520052  RH  100%=      5-min Rain = 0
KLA1 071501Z 02002KT 05/05 A3028 RMK A01 T00520052  RH  100%=      5-min Rain = 0.01
KLA1 071502Z 04000KT 05/05 A3028 RMK A01 T00520052  RH  100%=      5-min Rain = 0
KLA1 071503Z 02002KT 05/05 A3028 RMK A01 T00520052  RH  100%=      5-min Rain = 0
KLA1 071504Z 06003KT 05/05 A3028 RMK A01 T00520052  RH  100%=      5-min Rain = 0
KLA1 071505Z 06003KT 05/05 A3029 RMK A01 T00520052  RH  100%=      5-min Rain = 0.01
KLA1 071506Z 05002KT 05/05 A3029 RMK A01 T00520051  RH  100%=      5-min Rain = 0
KLA1 071507Z 04002KT 05/05 A3029 RMK A01 T00520051  RH  099%=      5-min Rain = 0.01
KLA1 071508Z 03001KT 05/05 A3029 RMK A01 T00520051  RH  099%=      5-min Rain = 0
KLA1 071509Z 06001KT 05/05 A3029 RMK A01 T00520051  RH  099%=      5-min Rain = 0
KLA1 071510Z 07001KT 05/05 A3029 RMK A01 T00520051  RH  099%=      5-min Rain = 0.01
KLA1 071511Z 07002KT 05/05 A3029 RMK A01 T00520051  RH  099%=      5-min Rain = 0
KLA1 071512Z 09003KT 05/05 A3029 RMK A01 T00530051  RH  099%=      5-min Rain = 0
KLA1 071513Z 10003KT 05/05 A3029 RMK A01 T00530051  RH  099%=      5-min Rain = 0.01
KLA1 071514Z 11002KT 05/05 A3029 RMK A01 T00520050  RH  098%=      5-min Rain = 0
KLA1 071515Z 15001KT 05/05 A3029 RMK A01 T00530050  RH  098%=      5-min Rain = 0
KLA1 071516Z 20000KT 05/05 A303 RMK A01 T00530051  RH  098%=      5-min Rain = 0.01
KLA1 071517Z 19001KT 05/05 A303 RMK A01 T00530051  RH  099%=      5-min Rain = 0
KLA1 071518Z 20000KT 05/05 A3029 RMK A01 T00540052  RH  099%=      5-min Rain = 0
KLA1 071519Z 00000KT 05/05 A3029 RMK A01 T00540053  RH  099%=      5-min Rain = 0.01
KLA1 071520Z 24000KT 05/05 A3029 RMK A01 T00540053  RH  099%=      5-min Rain = 0
KLA1 071521Z 24001KT 05/05 A3029 RMK A01 T00540053  RH  099%=      5-min Rain = 0
KLA1 071522Z 25001KT 06/05 A3029 RMK A01 T00550054  RH  100%=      5-min Rain = 0.01
KLA1 071523Z 26001KT 05/05 A3029 RMK A01 T00540054  RH  100%=      5-min Rain = 0
KLA1 071524Z 00000KT 05/05 A3029 RMK A01 T00540054  RH  100%=      5-min Rain = 0
KLA1 071525Z 28000KT 05/05 A3029 RMK A01 T00540054  RH  100%=      5-min Rain = 0.01
KLA1 071526Z 29002KT 05/05 A3029 RMK A01 T00540054  RH  100%=      5-min Rain = 0
KLA1 071527Z 29003KT 05/05 A3029 RMK A01 T00540054  RH  100%=      5-min Rain = 0.01
KLA1 071528Z 30003KT 05/05 A3029 RMK A01 T00540054  RH  100%=      5-min Rain = 0
KLA1 071529Z 31003KT 05/05 A3029 RMK A01 T00540054  RH  100%=      5-min Rain = 0.01
KLA1 071530Z 31002KT 05/05 A3029 RMK A01 T00540054  RH  100%=      5-min Rain = 0
KLA1 071531Z 33002KT 05/05 A3029 RMK A01 T00530053  RH  100%=      5-min Rain = 0
KLA1 071532Z 34002KT 05/05 A3029 RMK A01 T00540054  RH  100%=      5-min Rain = 0
KLA1 071533Z 33002KT 05/05 A3029 RMK A01 T00540054  RH  100%=      5-min Rain = 0.01
KLA1 071534Z 31001KT 05/05 A3029 RMK A01 T00540054  RH  100%=      5-min Rain = 0
KLA1 071535Z 30002KT 05/05 A3029 RMK A01 T00540054  RH  100%=      5-min Rain = 0
KLA1 071536Z 30002KT 05/05 A3029 RMK A01 T00530053  RH  100%=      5-min Rain = 0
KLA1 071537Z 30002KT 05/05 A3029 RMK A01 T00540054  RH  100%=      5-min Rain = 0
KLA1 071538Z 31002KT 05/05 A3029 RMK A01 T00530053  RH  100%=      5-min Rain = 0
KLA1 071539Z 32002KT 05/05 A3029 RMK A01 T00530053  RH  100%=      5-min Rain = 0.01
KLA1 071540Z 32002KT 05/05 A3029 RMK A01 T00530053  RH  100%=      5-min Rain = 0
KLA1 071541Z 31001KT 05/05 A3029 RMK A01 T00530053  RH  100%=      5-min Rain = 0
KLA1 071542Z 31001KT 05/05 A3029 RMK A01 T00540054  RH  100%=      5-min Rain = 0
KLA1 071543Z 33000KT 05/05 A3029 RMK A01 T00540054  RH  100%=      5-min Rain = 0.01
KLA1 071544Z 05000KT 05/05 A3029 RMK A01 T00540054  RH  100%=      5-min Rain = 0
KLA1 071545Z 00000KT 05/05 A3029 RMK A01 T00540054  RH  100%=      5-min Rain = 0
KLA1 071546Z 03001KT 05/05 A3028 RMK A01 T00540054  RH  100%=      5-min Rain = 0
KLA1 071547Z 03002KT 05/05 A3028 RMK A01 T00540054  RH  100%=      5-min Rain = 0.01
KLA1 071548Z 02002KT 05/05 A3028 RMK A01 T00540054  RH  100%=      5-min Rain = 0
KLA1 071549Z 03001KT 05/05 A3028 RMK A01 T00540054  RH  100%=      5-min Rain = 0
KLA1 071550Z 02002KT 05/05 A3028 RMK A01 T00540053  RH  100%=      5-min Rain = 0
KLA1 071551Z 06002KT 05/05 A3028 RMK A01 T00530053  RH  100%=      5-min Rain = 0
KLA1 071552Z 03002KT 05/05 A3028 RMK A01 T00530053  RH  100%=      5-min Rain = 0
KLA1 071553Z 03003KT 05/05 A3028 RMK A01 T00530053  RH  100%=      5-min Rain = 0.01
KLA1 071554Z 02002KT 05/05 A3028 RMK A01 T00530053  RH  100%=      5-min Rain = 0
KLA1 071555Z 00002KT 05/05 A3028 RMK A01 T00540053  RH  100%=      5-min Rain = 0
KLA1 071556Z 02002KT 05/05 A3028 RMK A01 T00540054  RH  100%=      5-min Rain = 0
KLA1 071557Z 01002KT 05/05 A3028 RMK A01 T00540054  RH  100%=      5-min Rain = 0
KLA1 071558Z 02002KT 05/05 A3028 RMK A01 T00540054  RH  100%=      5-min Rain = 0.01
KLA1 071559Z 02002KT 05/05 A3028 RMK A01 T00540054  RH  100%=      5-min Rain = 0
KLA1 071600Z 03002KT 05/05 A3028 RMK A01 T00540054  RH  100%=      5-min Rain = 0
KLA1 071601Z 02002KT 06/06 A3028 RMK A01 T00550055  RH  100%=      5-min Rain = 0
KLA1 071602Z 03002KT 06/06 A3027 RMK A01 T00550055  RH  100%=      5-min Rain = 0
KLA1 071603Z 06002KT 05/05 A3027 RMK A01 T00540054  RH  100%=      5-min Rain = 0
KLA1 071604Z 05004KT 05/05 A3027 RMK A01 T00540054  RH  100%=      5-min Rain = 0.01
KLA1 071605Z 05002KT 05/05 A3027 RMK A01 T00540054  RH  100%=      5-min Rain = 0
KLA1 071606Z 05002KT 05/05 A3027 RMK A01 T00540054  RH  100%=      5-min Rain = 0
KLA1 071607Z 04003KT 06/06 A3027 RMK A01 T00550055  RH  100%=      5-min Rain = 0
KLA1 071608Z 05003KT 06/06 A3027 RMK A01 T00550055  RH  100%=      5-min Rain = 0
KLA1 071609Z 04004KT 06/06 A3027 RMK A01 T00560056  RH  100%=      5-min Rain = 0
KLA1 071610Z 04003KT 06/06 A3027 RMK A01 T00560055  RH  100%=      5-min Rain = 0
KLA1 071611Z 06004KT 06/06 A3026 RMK A01 T00560056  RH  100%=      5-min Rain = 0
KLA1 071612Z 04005KT 06/06 A3026 RMK A01 T00560055  RH  100%=      5-min Rain = 0
KLA1 071613Z 04003KT 06/06 A3026 RMK A01 T00560056  RH  100%=      5-min Rain = 0
KLA1 071614Z 07004KT 06/06 A3026 RMK A01 T00560055  RH  099%=      5-min Rain = 0
KLA1 071615Z 05005KT 06/06 A3026 RMK A01 T00560055  RH  099%=      5-min Rain = 0
KLA1 071616Z 04006KT 06/06 A3026 RMK A01 T00560055  RH  099%=      5-min Rain = 0
KLA1 071617Z 05006KT 06/06 A3026 RMK A01 T00560055  RH  099%=      5-min Rain = 0.01
KLA1 071618Z 05004KT 06/06 A3025 RMK A01 T00560055  RH  099%=      5-min Rain = 0
KLA1 071619Z 06005KT 06/06 A3025 RMK A01 T00560055  RH  099%=      5-min Rain = 0
KLA1 071620Z 07006KT 06/06 A3025 RMK A01 T00570056  RH  099%=      5-min Rain = 0
KLA1 071621Z 04004KT 06/06 A3025 RMK A01 T00570056  RH  099%=      5-min Rain = 0
KLA1 071622Z 05004KT 06/06 A3025 RMK A01 T00570056  RH  099%=      5-min Rain = 0
KLA1 071623Z 05004KT 06/06 A3025 RMK A01 T00570056  RH  099%=      5-min Rain = 0
KLA1 071624Z 08002KT 06/06 A3025 RMK A01 T00570057  RH  100%=      5-min Rain = 0
KLA1 071625Z 08003KT 06/06 A3025 RMK A01 T00580057  RH  100%=      5-min Rain = 0
KLA1 071626Z 07005KT 06/06 A3025 RMK A01 T00580057  RH  100%=      5-min Rain = 0
KLA1 071627Z 08004KT 06/06 A3025 RMK A01 T00580057  RH  100%=      5-min Rain = 0.01
KLA1 071628Z 08005KT 06/06 A3025 RMK A01 T00580057  RH  100%=      5-min Rain = 0
KLA1 071629Z 07005KT 06/06 A3025 RMK A01 T00570056  RH  099%=      5-min Rain = 0
KLA1 071630Z 06005KT 06/06 A3024 RMK A01 T00580056  RH  099%=      5-min Rain = 0
KLA1 071631Z 06004KT 06/06 A3024 RMK A01 T00580056  RH  099%=      5-min Rain = 0
KLA1 071632Z 07003KT 06/06 A3024 RMK A01 T00580057  RH  099%=      5-min Rain = 0
KLA1 071633Z 06002KT 06/06 A3024 RMK A01 T00590058  RH  099%=      5-min Rain = 0
KLA1 071634Z 07003KT 06/06 A3024 RMK A01 T00590059  RH  100%=      5-min Rain = 0
KLA1 071635Z 08002KT 06/06 A3024 RMK A01 T00590058  RH  100%=      5-min Rain = 0
KLA1 071636Z 09002KT 06/06 A3024 RMK A01 T00590058  RH  099%=      5-min Rain = 0
KLA1 071637Z 08001KT 06/06 A3024 RMK A01 T00590057  RH  099%=      5-min Rain = 0
KLA1 071638Z 09000KT 06/06 A3024 RMK A01 T00590057  RH  099%=      5-min Rain = 0.01
KLA1 071639Z 03001KT 06/06 A3024 RMK A01 T00590057  RH  099%=      5-min Rain = 0
KLA1 071640Z 02000KT 06/06 A3024 RMK A01 T00590057  RH  099%=      5-min Rain = 0
KLA1 071641Z 34000KT 06/06 A3025 RMK A01 T00600057  RH  099%=      5-min Rain = 0
KLA1 071642Z 33000KT 06/06 A3025 RMK A01 T00600057  RH  098%=      5-min Rain = 0
KLA1 071643Z 32002KT 06/06 A3025 RMK A01 T00600058  RH  099%=      5-min Rain = 0
KLA1 071644Z 32003KT 06/06 A3025 RMK A01 T00600058  RH  099%=      5-min Rain = 0
KLA1 071645Z 03001KT 06/06 A3025 RMK A01 T00610059  RH  099%=      5-min Rain = 0
KLA1 071646Z 02001KT 06/06 A3025 RMK A01 T00600057  RH  098%=      5-min Rain = 0
KLA1 071647Z 35003KT 06/06 A3024 RMK A01 T00600057  RH  098%=      5-min Rain = 0
KLA1 071648Z 36002KT 06/06 A3024 RMK A01 T00610059  RH  099%=      5-min Rain = 0
KLA1 071649Z 01001KT 06/06 A3024 RMK A01 T00620060  RH  099%=      5-min Rain = 0.01
KLA1 071650Z 01001KT 06/06 A3024 RMK A01 T00620061  RH  099%=      5-min Rain = 0
KLA1 071651Z 02002KT 06/06 A3024 RMK A01 T00620061  RH  099%=      5-min Rain = 0
KLA1 071652Z 01003KT 06/06 A3024 RMK A01 T00620060  RH  099%=      5-min Rain = 0
KLA1 071653Z 00002KT 06/06 A3024 RMK A01 T00620060  RH  099%=      5-min Rain = 0
KLA1 071654Z 00003KT 06/06 A3024 RMK A01 T00620061  RH  099%=      5-min Rain = 0
KLA1 071655Z 01003KT 06/06 A3025 RMK A01 T00620061  RH  099%=      5-min Rain = 0
KLA1 071656Z 36003KT 06/06 A3025 RMK A01 T00630061  RH  099%=      5-min Rain = 0
KLA1 071657Z 35003KT 06/06 A3025 RMK A01 T00630061  RH  099%=      5-min Rain = 0.01
KLA1 071658Z 35003KT 06/06 A3025 RMK A01 T00630061  RH  099%=      5-min Rain = 0
KLA1 071659Z 36003KT 06/06 A3025 RMK A01 T00620060  RH  098%=      5-min Rain = 0
KLA1 071700Z 36003KT 06/06 A3025 RMK A01 T00620059  RH  098%=      5-min Rain = 0
KLA1 071701Z 36003KT 06/06 A3025 RMK A01 T00620060  RH  099%=      5-min Rain = 0
KLA1 071702Z 00003KT 06/06 A3024 RMK A01 T00630062  RH  099%=      5-min Rain = 0
KLA1 071703Z 00004KT 06/06 A3024 RMK A01 T00630062  RH  099%=      5-min Rain = 0
KLA1 071704Z 01004KT 06/06 A3024 RMK A01 T00630062  RH  099%=      5-min Rain = 0
KLA1 071705Z 36004KT 06/06 A3024 RMK A01 T00630062  RH  099%=      5-min Rain = 0
KLA1 071706Z 00004KT 06/06 A3024 RMK A01 T00630063  RH  100%=      5-min Rain = 0
KLA1 071707Z 00004KT 06/06 A3024 RMK A01 T00630063  RH  100%=      5-min Rain = 0
KLA1 071708Z 36005KT 06/06 A3024 RMK A01 T00640063  RH  100%=      5-min Rain = 0
KLA1 071709Z 35003KT 06/06 A3024 RMK A01 T00630062  RH  099%=      5-min Rain = 0
KLA1 071710Z 35004KT 06/06 A3024 RMK A01 T00630062  RH  099%=      5-min Rain = 0
KLA1 071711Z 35004KT 06/06 A3024 RMK A01 T00630062  RH  099%=      5-min Rain = 0
KLA1 071712Z 34005KT 06/06 A3024 RMK A01 T00630062  RH  100%=      5-min Rain = 0
KLA1 071713Z 33004KT 06/06 A3024 RMK A01 T00630063  RH  100%=      5-min Rain = 0
KLA1 071714Z 31007KT 06/06 A3024 RMK A01 T00640063  RH  099%=      5-min Rain = 0.01
KLA1 071715Z 31007KT 06/06 A3024 RMK A01 T00630062  RH  099%=      5-min Rain = 0
KLA1 071716Z 32009KT 06/06 A3024 RMK A01 T00620061  RH  099%=      5-min Rain = 0
KLA1 071717Z 32009KT 06/06 A3025 RMK A01 T00610060  RH  099%=      5-min Rain = 0
KLA1 071718Z 32008KT 06/06 A3025 RMK A01 T00600059  RH  100%=      5-min Rain = 0
KLA1 071719Z 31008KT 06/06 A3025 RMK A01 T00590058  RH  100%=      5-min Rain = 0
KLA1 071720Z 32008KT 06/06 A3025 RMK A01 T00590058  RH  100%=      5-min Rain = 0
KLA1 071721Z 32007KT 06/06 A3025 RMK A01 T00580058  RH  100%=      5-min Rain = 0
KLA1 071722Z 32007KT 06/06 A3025 RMK A01 T00580058  RH  100%=      5-min Rain = 0
KLA1 071723Z 32005KT 06/06 A3025 RMK A01 T00580058  RH  100%=      5-min Rain = 0
KLA1 071724Z 32006KT 06/06 A3025 RMK A01 T00580058  RH  100%=      5-min Rain = 0
KLA1 071725Z 33005KT 06/06 A3025 RMK A01 T00580058  RH  100%=      5-min Rain = 0
KLA1 071726Z 32007KT 06/06 A3025 RMK A01 T00580058  RH  100%=      5-min Rain = 0
KLA1 071727Z 32006KT 06/06 A3025 RMK A01 T00580057  RH  100%=      5-min Rain = 0
KLA1 071728Z 32007KT 06/06 A3025 RMK A01 T00570057  RH  100%=      5-min Rain = 0
KLA1 071729Z 32007KT 06/06 A3025 RMK A01 T00570057  RH  100%=      5-min Rain = 0
KLA1 071730Z 32006KT 06/06 A3025 RMK A01 T00570057  RH  100%=      5-min Rain = 0
KLA1 071731Z 32005KT 06/06 A3025 RMK A01 T00580058  RH  100%=      5-min Rain = 0
KLA1 071732Z 32006KT 06/06 A3025 RMK A01 T00580058  RH  100%=      5-min Rain = 0
KLA1 071733Z 32004KT 06/06 A3025 RMK A01 T00580058  RH  100%=      5-min Rain = 0
KLA1 071734Z 32004KT 06/06 A3025 RMK A01 T00580058  RH  100%=      5-min Rain = 0
KLA1 071735Z 31004KT 06/06 A3025 RMK A01 T00590059  RH  100%=      5-min Rain = 0
KLA1 071736Z 31005KT 06/06 A3025 RMK A01 T00590059  RH  100%=      5-min Rain = 0.01
KLA1 071737Z 31005KT 06/06 A3025 RMK A01 T00600059  RH  100%=      5-min Rain = 0
KLA1 071738Z 30005KT 06/06 A3025 RMK A01 T00590059  RH  100%=      5-min Rain = 0
KLA1 071739Z 31006KT 06/06 A3026 RMK A01 T00590059  RH  100%=      5-min Rain = 0
KLA1 071740Z 30006KT 06/06 A3026 RMK A01 T00600060  RH  100%=      5-min Rain = 0
KLA1 071741Z 30005KT 06/06 A3026 RMK A01 T00590059  RH  100%=      5-min Rain = 0
KLA1 071742Z 30005KT 06/06 A3026 RMK A01 T00600060  RH  100%=      5-min Rain = 0
KLA1 071743Z 30005KT 06/06 A3026 RMK A01 T00600060  RH  100%=      5-min Rain = 0
KLA1 071744Z 30007KT 06/06 A3026 RMK A01 T00600060  RH  100%=      5-min Rain = 0
KLA1 071745Z 31006KT 06/06 A3026 RMK A01 T00600060  RH  100%=      5-min Rain = 0
KLA1 071746Z 31006KT 06/06 A3026 RMK A01 T00600060  RH  100%=      5-min Rain = 0
KLA1 071747Z 31005KT 06/06 A3026 RMK A01 T00600060  RH  100%=      5-min Rain = 0
KLA1 071748Z 31005KT 06/06 A3026 RMK A01 T00600060  RH  100%=      5-min Rain = 0
KLA1 071749Z 32007KT 06/06 A3026 RMK A01 T00610061  RH  100%=      5-min Rain = 0.01
KLA1 071750Z 32006KT 06/06 A3026 RMK A01 T00610061  RH  100%=      5-min Rain = 0
KLA1 071751Z 33006KT 06/06 A3026 RMK A01 T00610061  RH  100%=      5-min Rain = 0
KLA1 071752Z 32007KT 06/06 A3026 RMK A01 T00610061  RH  100%=      5-min Rain = 0
KLA1 071753Z 32007KT 06/06 A3025 RMK A01 T00610061  RH  100%=      5-min Rain = 0
KLA1 071754Z 32006KT 06/06 A3025 RMK A01 T00610061  RH  100%=      5-min Rain = 0
KLA1 071755Z 32005KT 06/06 A3025 RMK A01 T00610061  RH  100%=      5-min Rain = 0
KLA1 071756Z 32006KT 06/06 A3025 RMK A01 T00610061  RH  100%=      5-min Rain = 0
KLA1 071757Z 32005KT 06/06 A3025 RMK A01 T00610061  RH  100%=      5-min Rain = 0
KLA1 071758Z 32006KT 06/06 A3025 RMK A01 T00610061  RH  100%=      5-min Rain = 0
KLA1 071759Z 32005KT 06/06 A3025 RMK A01 T00610061  RH  100%=      5-min Rain = 0.01
KLA1 071800Z 31007KT 06/06 A3025 RMK A01 T00610061  RH  100%=      5-min Rain = 0
KLA1 071801Z 31006KT 06/06 A3025 RMK A01 T00610061  RH  100%=      5-min Rain = 0
KLA1 071802Z 32006KT 06/06 A3025 RMK A01 T00610061  RH  100%=      5-min Rain = 0
KLA1 071803Z 32005KT 06/06 A3025 RMK A01 T00610061  RH  100%=      5-min Rain = 0
KLA1 071804Z 32004KT 06/06 A3025 RMK A01 T00610061  RH  100%=      5-min Rain = 0
KLA1 071805Z 32005KT 06/06 A3024 RMK A01 T00620062  RH  100%=      5-min Rain = 0
KLA1 071806Z 32006KT 06/06 A3024 RMK A01 T00620062  RH  100%=      5-min Rain = 0
KLA1 071807Z 33004KT 06/06 A3024 RMK A01 T00610061  RH  100%=      5-min Rain = 0
KLA1 071808Z 34004KT 06/06 A3024 RMK A01 T00610061  RH  100%=      5-min Rain = 0
KLA1 071809Z 33004KT 06/06 A3024 RMK A01 T00620062  RH  100%=      5-min Rain = 0
KLA1 071810Z 33005KT 06/06 A3024 RMK A01 T00620062  RH  100%=      5-min Rain = 0
KLA1 071811Z 33005KT 06/06 A3024 RMK A01 T00620062  RH  100%=      5-min Rain = 0.01
KLA1 071812Z 33005KT 06/06 A3023 RMK A01 T00620062  RH  100%=      5-min Rain = 0
KLA1 071813Z 33005KT 06/06 A3023 RMK A01 T00620062  RH  100%=      5-min Rain = 0
KLA1 071814Z 35005KT 06/06 A3023 RMK A01 T00620062  RH  100%=      5-min Rain = 0
KLA1 071815Z 34004KT 06/06 A3023 RMK A01 T00620062  RH  100%=      5-min Rain = 0
KLA1 071816Z 35005KT 06/06 A3023 RMK A01 T00620061  RH  100%=      5-min Rain = 0
KLA1 071817Z 35004KT 06/06 A3023 RMK A01 T00620062  RH  100%=      5-min Rain = 0
KLA1 071818Z 34003KT 06/06 A3023 RMK A01 T00620062  RH  100%=      5-min Rain = 0
KLA1 071819Z 34004KT 06/06 A3023 RMK A01 T00620062  RH  100%=      5-min Rain = 0
KLA1 071820Z 35005KT 06/06 A3022 RMK A01 T00620062  RH  100%=      5-min Rain = 0
KLA1 071821Z 00005KT 06/06 A3022 RMK A01 T00620062  RH  100%=      5-min Rain = 0
KLA1 071822Z 35006KT 06/06 A3022 RMK A01 T00630063  RH  100%=      5-min Rain = 0
KLA1 071823Z 35005KT 06/06 A3022 RMK A01 T00620062  RH  100%=      5-min Rain = 0
KLA1 071824Z 35005KT 06/06 A3022 RMK A01 T00620062  RH  100%=      5-min Rain = 0.01
KLA1 071825Z 35006KT 06/06 A3022 RMK A01 T00620062  RH  100%=      5-min Rain = 0
KLA1 071826Z 34006KT 06/06 A3022 RMK A01 T00620061  RH  100%=      5-min Rain = 0
KLA1 071827Z 35006KT 06/06 A3022 RMK A01 T00620062  RH  100%=      5-min Rain = 0
KLA1 071828Z 35006KT 06/06 A3022 RMK A01 T00620062  RH  100%=      5-min Rain = 0
KLA1 071829Z 34007KT 06/06 A3021 RMK A01 T00620061  RH  100%=      5-min Rain = 0
KLA1 071830Z 34008KT 06/06 A3021 RMK A01 T00620061  RH  099%=      5-min Rain = 0
KLA1 071831Z 34007KT 06/06 A3021 RMK A01 T00610059  RH  099%=      5-min Rain = 0
KLA1 071832Z 35008KT 06/06 A3021 RMK A01 T00610059  RH  099%=      5-min Rain = 0
KLA1 071833Z 35007KT 06/06 A3021 RMK A01 T00610059  RH  099%=      5-min Rain = 0
KLA1 071834Z 33005KT 06/06 A3021 RMK A01 T00610059  RH  099%=      5-min Rain = 0
KLA1 071835Z 34005KT 06/06 A3021 RMK A01 T00610059  RH  099%=      5-min Rain = 0
KLA1 071836Z 35006KT 06/06 A3021 RMK A01 T00600059  RH  099%=      5-min Rain = 0
KLA1 071837Z 35006KT 06/06 A3021 RMK A01 T00600058  RH  098%=      5-min Rain = 0
KLA1 071838Z 34007KT 06/06 A3021 RMK A01 T00600058  RH  099%=      5-min Rain = 0
KLA1 071839Z 35008KT 06/06 A3021 RMK A01 T00600057  RH  098%=      5-min Rain = 0
KLA1 071840Z 35007KT 06/06 A3021 RMK A01 T00600057  RH  098%=      5-min Rain = 0
KLA1 071841Z 35008KT 06/06 A3021 RMK A01 T00590057  RH  098%=      5-min Rain = 0
KLA1 071842Z 36009KT 06/06 A302 RMK A01 T00590056  RH  098%=      5-min Rain = 0
KLA1 071843Z 00008KT 06/06 A302 RMK A01 T00580055  RH  098%=      5-min Rain = 0
KLA1 071844Z 36008KT 06/06 A302 RMK A01 T00580055  RH  098%=      5-min Rain = 0
KLA1 071845Z 35007KT 06/06 A302 RMK A01 T00580055  RH  098%=      5-min Rain = 0.01
KLA1 071846Z 35008KT 06/06 A302 RMK A01 T00580056  RH  098%=      5-min Rain = 0
KLA1 071847Z 35007KT 06/06 A302 RMK A01 T00580055  RH  098%=      5-min Rain = 0
KLA1 071848Z 00007KT 06/06 A302 RMK A01 T00580055  RH  098%=      5-min Rain = 0
KLA1 071849Z 35005KT 06/06 A302 RMK A01 T00580055  RH  098%=      5-min Rain = 0
KLA1 071850Z 35006KT 06/06 A302 RMK A01 T00580056  RH  099%=      5-min Rain = 0
KLA1 071851Z 01006KT 06/06 A302 RMK A01 T00580056  RH  099%=      5-min Rain = 0
KLA1 071852Z 01007KT 06/06 A302 RMK A01 T00580056  RH  099%=      5-min Rain = 0
KLA1 071853Z 36008KT 06/06 A302 RMK A01 T00580056  RH  099%=      5-min Rain = 0
KLA1 071854Z 36007KT 06/06 A302 RMK A01 T00580056  RH  099%=      5-min Rain = 0
KLA1 071855Z 00007KT 06/06 A302 RMK A01 T00570055  RH  098%=      5-min Rain = 0
KLA1 071856Z 36007KT 06/05 A302 RMK A01 T00570054  RH  098%=      5-min Rain = 0
KLA1 071857Z 36008KT 06/05 A3021 RMK A01 T00570054  RH  098%=      5-min Rain = 0
KLA1 071858Z 35010KT 06/05 A3021 RMK A01 T00570053  RH  098%=      5-min Rain = 0
KLA1 071859Z 35008KT 06/05 A3021 RMK A01 T00560052  RH  097%=      5-min Rain = 0
KLA1 071900Z 35006KT 06/05 A3021 RMK A01 T00560053  RH  098%=      5-min Rain = 0
KLA1 071901Z 35005KT 06/05 A3021 RMK A01 T00560053  RH  098%=      5-min Rain = 0
KLA1 071902Z 35005KT 06/05 A3021 RMK A01 T00570054  RH  098%=      5-min Rain = 0
KLA1 071903Z 36005KT 06/05 A3021 RMK A01 T00570054  RH  098%=      5-min Rain = 0
KLA1 071904Z 35006KT 06/05 A3021 RMK A01 T00570054  RH  098%=      5-min Rain = 0
KLA1 071905Z 34006KT 06/05 A3021 RMK A01 T00570054  RH  098%=      5-min Rain = 0
KLA1 071906Z 34006KT 06/05 A3021 RMK A01 T00570054  RH  098%=      5-min Rain = 0
KLA1 071907Z 34006KT 06/05 A3022 RMK A01 T00560053  RH  098%=      5-min Rain = 0
KLA1 071908Z 34007KT 06/05 A3022 RMK A01 T00560053  RH  098%=      5-min Rain = 0
KLA1 071909Z 34006KT 06/05 A3022 RMK A01 T00560053  RH  098%=      5-min Rain = 0
KLA1 071910Z 35007G12KT 06/05 A3022 RMK A01 T00560053  RH  098%=      5-min Rain = 0
KLA1 071911Z 34008KT 06/05 A3022 RMK A01 T00560053  RH  098%=      5-min Rain = 0
KLA1 071912Z 35008KT 06/05 A3022 RMK A01 T00560053  RH  098%=      5-min Rain = 0
KLA1 071913Z 35009KT 06/05 A3022 RMK A01 T00560053  RH  098%=      5-min Rain = 0
KLA1 071914Z 35008KT 06/05 A3022 RMK A01 T00560053  RH  098%=      5-min Rain = 0
KLA1 071915Z 35008KT 06/05 A3022 RMK A01 T00560053  RH  098%=      5-min Rain = 0
KLA1 071916Z 35009KT 06/05 A3022 RMK A01 T00560052  RH  098%=      5-min Rain = 0
KLA1 071917Z 36008KT 06/05 A3022 RMK A01 T00560052  RH  097%=      5-min Rain = 0
KLA1 071918Z 35006KT 06/05 A3022 RMK A01 T00550052  RH  098%=      5-min Rain = 0
KLA1 071919Z 34006KT 06/05 A3022 RMK A01 T00550053  RH  098%=      5-min Rain = 0
KLA1 071920Z 34008KT 06/05 A3022 RMK A01 T00560053  RH  098%=      5-min Rain = 0
KLA1 071921Z 35005KT 06/05 A3022 RMK A01 T00550052  RH  098%=      5-min Rain = 0
KLA1 071922Z 34006KT 06/05 A3022 RMK A01 T00550052  RH  098%=      5-min Rain = 0
KLA1 071923Z 35006KT 06/05 A3022 RMK A01 T00550051  RH  098%=      5-min Rain = 0
KLA1 071924Z 35006KT 06/05 A3022 RMK A01 T00550052  RH  098%=      5-min Rain = 0
KLA1 071925Z 33005KT 06/05 A3022 RMK A01 T00550052  RH  098%=      5-min Rain = 0
KLA1 071926Z 34005KT 06/05 A3022 RMK A01 T00550053  RH  098%=      5-min Rain = 0
KLA1 071927Z 34006KT 06/05 A3023 RMK A01 T00550053  RH  098%=      5-min Rain = 0
KLA1 071928Z 35006KT 06/05 A3023 RMK A01 T00560053  RH  098%=      5-min Rain = 0
KLA1 071929Z 35008KT 06/05 A3023 RMK A01 T00560054  RH  098%=      5-min Rain = 0.01
KLA1 071930Z 35008KT 06/05 A3023 RMK A01 T00560053  RH  098%=      5-min Rain = 0
KLA1 071931Z 35006KT 06/05 A3022 RMK A01 T00550053  RH  098%=      5-min Rain = 0
KLA1 071932Z 35007KT 06/05 A3022 RMK A01 T00550053  RH  098%=      5-min Rain = 0
KLA1 071933Z 35006KT 06/05 A3022 RMK A01 T00550052  RH  098%=      5-min Rain = 0
KLA1 071934Z 35006KT 06/05 A3022 RMK A01 T00550053  RH  099%=      5-min Rain = 0
KLA1 071935Z 35006KT 06/05 A3022 RMK A01 T00550054  RH  099%=      5-min Rain = 0
KLA1 071936Z 34004KT 06/06 A3022 RMK A01 T00560055  RH  099%=      5-min Rain = 0
KLA1 071937Z 35006KT 06/06 A3022 RMK A01 T00560055  RH  099%=      5-min Rain = 0
KLA1 071938Z 33007KT 06/06 A3022 RMK A01 T00560055  RH  099%=      5-min Rain = 0.01
KLA1 071939Z 35006KT 06/05 A3022 RMK A01 T00550054  RH  099%=      5-min Rain = 0
KLA1 071940Z 35007KT 06/05 A3022 RMK A01 T00550054  RH  099%=      5-min Rain = 0
KLA1 071941Z 34007KT 06/06 A3022 RMK A01 T00550055  RH  099%=      5-min Rain = 0
KLA1 071942Z 35006KT 06/06 A3022 RMK A01 T00550055  RH  099%=      5-min Rain = 0
KLA1 071943Z 35007KT 06/05 A3022 RMK A01 T00550054  RH  099%=      5-min Rain = 0
KLA1 071944Z 35007KT 06/06 A3022 RMK A01 T00560055  RH  100%=      5-min Rain = 0
KLA1 071945Z 35005KT 06/05 A3022 RMK A01 T00550054  RH  099%=      5-min Rain = 0
KLA1 071946Z 35006KT 06/05 A3022 RMK A01 T00550054  RH  099%=      5-min Rain = 0.01
KLA1 071947Z 34006KT 06/05 A3022 RMK A01 T00550054  RH  100%=      5-min Rain = 0
KLA1 071948Z 35007KT 06/05 A3022 RMK A01 T00550054  RH  099%=      5-min Rain = 0
KLA1 071949Z 35006KT 06/05 A3022 RMK A01 T00550054  RH  099%=      5-min Rain = 0
KLA1 071950Z 34006KT 06/05 A3022 RMK A01 T00550054  RH  100%=      5-min Rain = 0
KLA1 071951Z 33004KT 06/05 A3022 RMK A01 T00550054  RH  100%=      5-min Rain = 0
KLA1 071952Z 35005KT 06/05 A3022 RMK A01 T00550054  RH  100%=      5-min Rain = 0
KLA1 071953Z 34006KT 06/06 A3022 RMK A01 T00550055  RH  100%=      5-min Rain = 0
KLA1 071954Z 35007KT 06/06 A3022 RMK A01 T00550055  RH  100%=      5-min Rain = 0
KLA1 071955Z 35005KT 06/06 A3022 RMK A01 T00550055  RH  100%=      5-min Rain = 0
KLA1 071956Z 35006KT 06/06 A3022 RMK A01 T00550055  RH  100%=      5-min Rain = 0.01
KLA1 071957Z 35007KT 06/06 A3022 RMK A01 T00550055  RH  100%=      5-min Rain = 0
KLA1 071958Z 35007KT 06/06 A3022 RMK A01 T00550055  RH  100%=      5-min Rain = 0
KLA1 071959Z 35007KT 06/06 A3022 RMK A01 T00550055  RH  100%=      5-min Rain = 0
KLA1 072000Z 34007KT 06/06 A3022 RMK A01 T00550055  RH  100%=      5-min Rain = 0
KLA1 072001Z 35007KT 06/06 A3022 RMK A01 T00550055  RH  100%=      5-min Rain = 0
KLA1 072002Z 34007KT 06/06 A3022 RMK A01 T00550055  RH  100%=      5-min Rain = 0
KLA1 072003Z 35007KT 06/06 A3022 RMK A01 T00550055  RH  100%=      5-min Rain = 0
KLA1 072004Z 35007KT 06/06 A3022 RMK A01 T00550055  RH  100%=      5-min Rain = 0.01
KLA1 072005Z 36008KT 06/06 A3021 RMK A01 T00550055  RH  100%=      5-min Rain = 0
KLA1 072006Z 35007KT 06/06 A3021 RMK A01 T00550055  RH  100%=      5-min Rain = 0
KLA1 072007Z 35008KT 06/06 A3021 RMK A01 T00550055  RH  100%=      5-min Rain = 0
KLA1 072008Z 35007KT 06/06 A3021 RMK A01 T00550055  RH  100%=      5-min Rain = 0
KLA1 072009Z 34007KT 06/06 A3021 RMK A01 T00550055  RH  100%=      5-min Rain = 0
KLA1 072010Z 35008KT 06/06 A3021 RMK A01 T00550055  RH  100%=      5-min Rain = 0
KLA1 072011Z 34007KT 06/06 A3021 RMK A01 T00550055  RH  100%=      5-min Rain = 0.01
KLA1 072012Z 35007KT 06/06 A3021 RMK A01 T00550055  RH  100%=      5-min Rain = 0
KLA1 072013Z 35009KT 06/06 A3021 RMK A01 T00550055  RH  100%=      5-min Rain = 0
KLA1 072014Z 35008KT 06/06 A3021 RMK A01 T00550055  RH  100%=      5-min Rain = 0
KLA1 072015Z 34007KT 05/05 A3021 RMK A01 T00540054  RH  100%=      5-min Rain = 0
KLA1 072016Z 35008KT 05/05 A3021 RMK A01 T00540054  RH  100%=      5-min Rain = 0
KLA1 072017Z 35009KT 06/05 A3021 RMK A01 T00550054  RH  100%=      5-min Rain = 0
KLA1 072018Z 35007KT 05/05 A3021 RMK A01 T00540054  RH  100%=      5-min Rain = 0.01
KLA1 072019Z 35009KT 05/05 A3021 RMK A01 T00540053  RH  100%=      5-min Rain = 0
KLA1 072020Z 35008KT 05/05 A3021 RMK A01 T00540054  RH  100%=      5-min Rain = 0
KLA1 072021Z 35008KT 05/05 A3021 RMK A01 T00540054  RH  100%=      5-min Rain = 0
KLA1 072022Z 35010KT 05/05 A3021 RMK A01 T00540053  RH  100%=      5-min Rain = 0
KLA1 072023Z 35007KT 05/05 A3021 RMK A01 T00540054  RH  100%=      5-min Rain = 0.01
KLA1 072024Z 35007KT 05/05 A3021 RMK A01 T00540054  RH  100%=      5-min Rain = 0
KLA1 072025Z 36007KT 05/05 A3021 RMK A01 T00540054  RH  100%=      5-min Rain = 0
KLA1 072026Z 36009KT 05/05 A302 RMK A01 T00540054  RH  100%=      5-min Rain = 0
KLA1 072027Z 36008KT 05/05 A302 RMK A01 T00540054  RH  100%=      5-min Rain = 0
KLA1 072028Z 01010KT 05/05 A302 RMK A01 T00540054  RH  100%=      5-min Rain = 0.01
KLA1 072029Z 35009KT 05/05 A302 RMK A01 T00540054  RH  100%=      5-min Rain = 0
KLA1 072030Z 35007KT 05/05 A302 RMK A01 T00540054  RH  100%=      5-min Rain = 0
KLA1 072031Z 36006KT 05/05 A302 RMK A01 T00540054  RH  100%=      5-min Rain = 0
KLA1 072032Z 35006KT 05/05 A302 RMK A01 T00540054  RH  100%=      5-min Rain = 0
KLA1 072033Z 00010KT 05/05 A302 RMK A01 T00540054  RH  100%=      5-min Rain = 0
KLA1 072034Z 35008KT 05/05 A302 RMK A01 T00540053  RH  100%=      5-min Rain = 0
KLA1 072035Z 35005KT 05/05 A3021 RMK A01 T00540053  RH  100%=      5-min Rain = 0
KLA1 072036Z 00009KT 05/05 A3021 RMK A01 T00540054  RH  100%=      5-min Rain = 0.01
KLA1 072037Z 00007KT 05/05 A3021 RMK A01 T00530053  RH  100%=      5-min Rain = 0
KLA1 072038Z 36008KT 05/05 A3021 RMK A01 T00530052  RH  099%=      5-min Rain = 0
KLA1 072039Z 35006KT 05/05 A3021 RMK A01 T00530053  RH  100%=      5-min Rain = 0
KLA1 072040Z 35006KT 05/05 A302 RMK A01 T00530053  RH  100%=      5-min Rain = 0
KLA1 072041Z 35006KT 05/05 A302 RMK A01 T00540053  RH  100%=      5-min Rain = 0
KLA1 072042Z 35008KT 05/05 A302 RMK A01 T00530053  RH  100%=      5-min Rain = 0
KLA1 072043Z 36006KT 05/05 A302 RMK A01 T00530053  RH  100%=      5-min Rain = 0.01
KLA1 072044Z 35008KT 05/05 A302 RMK A01 T00540054  RH  100%=      5-min Rain = 0
KLA1 072045Z 35007KT 05/05 A302 RMK A01 T00540054  RH  100%=      5-min Rain = 0
KLA1 072046Z 36007KT 05/05 A302 RMK A01 T00530053  RH  100%=      5-min Rain = 0
KLA1 072047Z 35007KT 05/05 A302 RMK A01 T00540053  RH  100%=      5-min Rain = 0
KLA1 072048Z 36006KT 05/05 A302 RMK A01 T00530053  RH  100%=      5-min Rain = 0
KLA1 072049Z 35006KT 05/05 A302 RMK A01 T00530053  RH  100%=      5-min Rain = 0
KLA1 072050Z 35006KT 05/05 A302 RMK A01 T00540054  RH  100%=      5-min Rain = 0.01
KLA1 072051Z 34006KT 05/05 A302 RMK A01 T00530053  RH  100%=      5-min Rain = 0
KLA1 072052Z 35007KT 05/05 A302 RMK A01 T00530053  RH  100%=      5-min Rain = 0
KLA1 072053Z 35006KT 05/05 A302 RMK A01 T00530053  RH  100%=      5-min Rain = 0
KLA1 072054Z 36007KT 05/05 A302 RMK A01 T00530053  RH  100%=      5-min Rain = 0
KLA1 072055Z 00008KT 05/05 A302 RMK A01 T00530053  RH  100%=      5-min Rain = 0
KLA1 072056Z 36009G14KT 05/05 A302 RMK A01 T00530053  RH  100%=      5-min Rain = 0
KLA1 072057Z 00007KT 05/05 A302 RMK A01 T00530053  RH  100%=      5-min Rain = 0.01
KLA1 072058Z 35007KT 05/05 A3019 RMK A01 T00530053  RH  100%=      5-min Rain = 0
KLA1 072059Z 00006KT 05/05 A3019 RMK A01 T00530053  RH  100%=      5-min Rain = 0
KLA1 072100Z 36006KT 05/05 A3019 RMK A01 T00530053  RH  100%=      5-min Rain = 0
KLA1 072101Z 35007KT 05/05 A3019 RMK A01 T00530053  RH  100%=      5-min Rain = 0
KLA1 072102Z 36006KT 05/05 A3019 RMK A01 T00540054  RH  100%=      5-min Rain = 0
KLA1 072103Z 35005KT 05/05 A3019 RMK A01 T00540054  RH  100%=      5-min Rain = 0
KLA1 072104Z 36006G11KT 05/05 A3019 RMK A01 T00540054  RH  100%=      5-min Rain = 0
KLA1 072105Z 36008KT 05/05 A3019 RMK A01 T00540054  RH  100%=      5-min Rain = 0.01
KLA1 072106Z 35006KT 05/05 A3019 RMK A01 T00540054  RH  100%=      5-min Rain = 0
KLA1 072107Z 34008KT 05/05 A3019 RMK A01 T00540054  RH  100%=      5-min Rain = 0
KLA1 072108Z 35007KT 05/05 A3019 RMK A01 T00540053  RH  099%=      5-min Rain = 0
KLA1 072109Z 35005KT 05/05 A3019 RMK A01 T00540053  RH  099%=      5-min Rain = 0
KLA1 072110Z 00005KT 05/05 A3019 RMK A01 T00540053  RH  099%=      5-min Rain = 0
KLA1 072111Z 35003KT 05/05 A3019 RMK A01 T00540053  RH  099%=      5-min Rain = 0
KLA1 072112Z 34003KT 05/05 A3019 RMK A01 T00540054  RH  100%=      5-min Rain = 0.01
KLA1 072113Z 36005KT 05/05 A3019 RMK A01 T00540054  RH  100%=      5-min Rain = 0
KLA1 072114Z 00006KT 05/05 A3019 RMK A01 T00540054  RH  100%=      5-min Rain = 0
KLA1 072115Z 01006KT 05/05 A3019 RMK A01 T00540054  RH  100%=      5-min Rain = 0
KLA1 072116Z 00005KT 05/05 A3019 RMK A01 T00540053  RH  099%=      5-min Rain = 0
KLA1 072117Z 01005KT 05/05 A3019 RMK A01 T00540053  RH  099%=      5-min Rain = 0.01
KLA1 072118Z 00004KT 05/05 A3019 RMK A01 T00540053  RH  099%=      5-min Rain = 0
KLA1 072119Z 36003KT 06/05 A3019 RMK A01 T00550054  RH  100%=      5-min Rain = 0
KLA1 072120Z 36006KT 06/05 A3019 RMK A01 T00550054  RH  100%=      5-min Rain = 0
KLA1 072121Z 36006KT 06/05 A3019 RMK A01 T00550054  RH  099%=      5-min Rain = 0.01
KLA1 072122Z 34005KT 05/05 A3019 RMK A01 T00540053  RH  099%=      5-min Rain = 0
KLA1 072123Z 01007KT 05/05 A3018 RMK A01 T00540052  RH  099%=      5-min Rain = 0
KLA1 072124Z 01005KT 06/05 A3018 RMK A01 T00550052  RH  098%=      5-min Rain = 0
KLA1 072125Z 34003KT 05/05 A3018 RMK A01 T00540052  RH  099%=      5-min Rain = 0
KLA1 072126Z 35002KT 06/05 A3018 RMK A01 T00550053  RH  099%=      5-min Rain = 0.01
KLA1 072127Z 02005KT 06/05 A3018 RMK A01 T00550054  RH  099%=      5-min Rain = 0
KLA1 072128Z 35003KT 06/05 A3018 RMK A01 T00550053  RH  099%=      5-min Rain = 0
KLA1 072129Z 36005KT 06/05 A3018 RMK A01 T00550053  RH  099%=      5-min Rain = 0
KLA1 072130Z 00006KT 06/05 A3018 RMK A01 T00550053  RH  098%=      5-min Rain = 0
KLA1 072131Z 00007KT 06/05 A3018 RMK A01 T00550053  RH  098%=      5-min Rain = 0
KLA1 072132Z 35003KT 06/05 A3018 RMK A01 T00550052  RH  098%=      5-min Rain = 0
KLA1 072133Z 34001KT 06/05 A3018 RMK A01 T00550052  RH  098%=      5-min Rain = 0.01
KLA1 072134Z 35002KT 06/05 A3018 RMK A01 T00560053  RH  098%=      5-min Rain = 0
KLA1 072135Z 34004KT 06/05 A3018 RMK A01 T00550053  RH  098%=      5-min Rain = 0
KLA1 072136Z 00004KT 06/05 A3018 RMK A01 T00550052  RH  098%=      5-min Rain = 0
KLA1 072137Z 00006KT 06/05 A3018 RMK A01 T00550052  RH  098%=      5-min Rain = 0
KLA1 072138Z 01005KT 06/05 A3018 RMK A01 T00550052  RH  098%=      5-min Rain = 0
KLA1 072139Z 35003KT 06/05 A3018 RMK A01 T00550052  RH  098%=      5-min Rain = 0
KLA1 072140Z 34004KT 06/05 A3018 RMK A01 T00550052  RH  098%=      5-min Rain = 0
KLA1 072141Z 35002KT 06/05 A3018 RMK A01 T00550052  RH  098%=      5-min Rain = 0
KLA1 072142Z 34004G9KT 06/05 A3018 RMK A01 T00550052  RH  098%=      5-min Rain = 0
KLA1 072143Z 36006KT 06/05 A3018 RMK A01 T00550052  RH  098%=      5-min Rain = 0
KLA1 072144Z 03004KT 06/05 A3018 RMK A01 T00550051  RH  097%=      5-min Rain = 0.01
KLA1 072145Z 01007KT 06/05 A3018 RMK A01 T00560051  RH  097%=      5-min Rain = 0
KLA1 072146Z 01005KT 06/05 A3018 RMK A01 T00550051  RH  097%=      5-min Rain = 0
KLA1 072147Z 35004KT 06/05 A3018 RMK A01 T00550051  RH  097%=      5-min Rain = 0
KLA1 072148Z 36005KT 06/05 A3018 RMK A01 T00550051  RH  097%=      5-min Rain = 0
KLA1 072149Z 00004KT 06/05 A3018 RMK A01 T00550051  RH  097%=      5-min Rain = 0
KLA1 072150Z 35004KT 06/05 A3018 RMK A01 T00550051  RH  097%=      5-min Rain = 0
KLA1 072151Z 00005KT 06/05 A3018 RMK A01 T00560052  RH  097%=      5-min Rain = 0
KLA1 072152Z 01005KT 06/05 A3018 RMK A01 T00560052  RH  098%=      5-min Rain = 0
KLA1 072153Z 35005KT 06/05 A3018 RMK A01 T00560052  RH  097%=      5-min Rain = 0
KLA1 072154Z 00005KT 06/05 A3018 RMK A01 T00560052  RH  097%=      5-min Rain = 0
KLA1 072155Z 35004KT 06/05 A3018 RMK A01 T00560052  RH  097%=      5-min Rain = 0
KLA1 072156Z 35004KT 06/05 A3018 RMK A01 T00560052  RH  097%=      5-min Rain = 0
KLA1 072157Z 35003KT 06/05 A3018 RMK A01 T00560053  RH  098%=      5-min Rain = 0.01
KLA1 072158Z 01002KT 06/05 A3019 RMK A01 T00560052  RH  097%=      5-min Rain = 0
KLA1 072159Z 01003KT 06/05 A3019 RMK A01 T00560052  RH  097%=      5-min Rain = 0
KLA1 072200Z 01001KT 06/05 A3019 RMK A01 T00560053  RH  098%=      5-min Rain = 0
KLA1 072201Z 36003KT 06/05 A3019 RMK A01 T00560053  RH  098%=      5-min Rain = 0
KLA1 072202Z 35002KT 06/05 A3019 RMK A01 T00570054  RH  098%=      5-min Rain = 0
KLA1 072203Z 35004KT 06/05 A3019 RMK A01 T00570054  RH  098%=      5-min Rain = 0
KLA1 072204Z 03002KT 06/05 A3019 RMK A01 T00570053  RH  098%=      5-min Rain = 0
KLA1 072205Z 07001KT 06/05 A3019 RMK A01 T00560053  RH  097%=      5-min Rain = 0
KLA1 072206Z 00000KT 06/05 A3019 RMK A01 T00560052  RH  097%=      5-min Rain = 0
KLA1 072207Z 00001KT 06/05 A3019 RMK A01 T00560052  RH  097%=      5-min Rain = 0
KLA1 072208Z 01000KT 06/05 A3019 RMK A01 T00560052  RH  097%=      5-min Rain = 0
KLA1 072209Z 05000KT 06/05 A3019 RMK A01 T00560052  RH  097%=      5-min Rain = 0
KLA1 072210Z 01000KT 06/05 A3019 RMK A01 T00570052  RH  097%=      5-min Rain = 0
KLA1 072211Z 05002KT 06/05 A3019 RMK A01 T00570052  RH  097%=      5-min Rain = 0
KLA1 072212Z 05002KT 06/05 A3019 RMK A01 T00570052  RH  097%=      5-min Rain = 0
KLA1 072213Z 04002KT 06/05 A3019 RMK A01 T00570052  RH  097%=      5-min Rain = 0
KLA1 072214Z 03001KT 06/05 A3019 RMK A01 T00570053  RH  097%=      5-min Rain = 0
KLA1 072215Z 03002KT 06/05 A3019 RMK A01 T00570053  RH  097%=      5-min Rain = 0
KLA1 072216Z 05002KT 06/05 A3019 RMK A01 T00570053  RH  097%=      5-min Rain = 0
KLA1 072217Z 09001KT 06/05 A302 RMK A01 T00570053  RH  097%=      5-min Rain = 0
KLA1 072218Z 32001KT 06/05 A302 RMK A01 T00570053  RH  097%=      5-min Rain = 0.01
KLA1 072219Z 34001KT 06/05 A302 RMK A01 T00570053  RH  097%=      5-min Rain = 0
KLA1 072220Z 35002KT 06/05 A302 RMK A01 T00570053  RH  097%=      5-min Rain = 0
KLA1 072221Z 35002KT 06/05 A302 RMK A01 T00570053  RH  097%=      5-min Rain = 0
KLA1 072222Z 35002KT 06/05 A302 RMK A01 T00570053  RH  097%=      5-min Rain = 0
KLA1 072223Z 33002KT 06/05 A302 RMK A01 T00570054  RH  098%=      5-min Rain = 0
KLA1 072224Z 32002KT 06/06 A302 RMK A01 T00580055  RH  098%=      5-min Rain = 0
KLA1 072225Z 33003KT 06/06 A302 RMK A01 T00580055  RH  098%=      5-min Rain = 0
KLA1 072226Z 34002KT 06/05 A302 RMK A01 T00580054  RH  098%=      5-min Rain = 0
KLA1 072227Z 35001KT 06/06 A302 RMK A01 T00580055  RH  098%=      5-min Rain = 0
KLA1 072228Z 00002KT 06/05 A302 RMK A01 T00580054  RH  098%=      5-min Rain = 0.01
KLA1 072229Z 02002KT 06/05 A302 RMK A01 T00570054  RH  098%=      5-min Rain = 0
KLA1 072230Z 01001KT 06/05 A302 RMK A01 T00580054  RH  098%=      5-min Rain = 0
KLA1 072231Z 01001KT 06/05 A302 RMK A01 T00570054  RH  098%=      5-min Rain = 0
KLA1 072232Z 35000KT 06/06 A302 RMK A01 T00580055  RH  098%=      5-min Rain = 0
KLA1 072233Z 31001KT 06/06 A302 RMK A01 T00580055  RH  098%=      5-min Rain = 0.01
KLA1 072234Z 35001KT 06/06 A302 RMK A01 T00580055  RH  098%=      5-min Rain = 0
KLA1 072235Z 35002KT 06/05 A3021 RMK A01 T00580054  RH  098%=      5-min Rain = 0
KLA1 072236Z 34002KT 06/05 A3021 RMK A01 T00570053  RH  097%=      5-min Rain = 0.01
KLA1 072237Z 33002KT 06/05 A3021 RMK A01 T00570053  RH  097%=      5-min Rain = 0
KLA1 072238Z 29002KT 06/05 A3021 RMK A01 T00570053  RH  097%=      5-min Rain = 0
KLA1 072239Z 30001KT 06/06 A3021 RMK A01 T00580055  RH  098%=      5-min Rain = 0
KLA1 072240Z 29002KT 06/06 A3021 RMK A01 T00580055  RH  098%=      5-min Rain = 0.01
KLA1 072241Z 29002KT 06/06 A3021 RMK A01 T00580056  RH  099%=      5-min Rain = 0
KLA1 072242Z 30003KT 06/06 A3021 RMK A01 T00580057  RH  099%=      5-min Rain = 0
KLA1 072243Z 31002KT 06/06 A3021 RMK A01 T00580057  RH  099%=      5-min Rain = 0
KLA1 072244Z 30002KT 06/06 A3021 RMK A01 T00580057  RH  099%=      5-min Rain = 0
KLA1 072245Z 30002KT 06/06 A3021 RMK A01 T00580057  RH  100%=      5-min Rain = 0.01
KLA1 072246Z 31002KT 06/06 A3021 RMK A01 T00580058  RH  100%=      5-min Rain = 0
KLA1 072247Z 30002KT 06/06 A3021 RMK A01 T00580058  RH  100%=      5-min Rain = 0
KLA1 072248Z 31002KT 06/06 A3021 RMK A01 T00580058  RH  100%=      5-min Rain = 0
KLA1 072249Z 30002KT 06/06 A3022 RMK A01 T00580058  RH  100%=      5-min Rain = 0
KLA1 072250Z 30002KT 06/06 A3022 RMK A01 T00580058  RH  100%=      5-min Rain = 0
KLA1 072251Z 30003KT 06/06 A3022 RMK A01 T00580058  RH  100%=      5-min Rain = 0.01
KLA1 072252Z 30003KT 06/06 A3022 RMK A01 T00580058  RH  100%=      5-min Rain = 0
KLA1 072253Z 31003KT 06/06 A3021 RMK A01 T00580058  RH  100%=      5-min Rain = 0
KLA1 072254Z 31002KT 06/06 A3021 RMK A01 T00580058  RH  100%=      5-min Rain = 0
KLA1 072255Z 31002KT 06/06 A3021 RMK A01 T00580058  RH  100%=      5-min Rain = 0.01
KLA1 072256Z 31003KT 06/06 A3021 RMK A01 T00580058  RH  100%=      5-min Rain = 0
KLA1 072257Z 31003KT 06/06 A3021 RMK A01 T00580058  RH  100%=      5-min Rain = 0
KLA1 072258Z 34004KT 06/06 A3021 RMK A01 T00570057  RH  100%=      5-min Rain = 0
KLA1 072259Z 33004KT 06/06 A3021 RMK A01 T00570057  RH  100%=      5-min Rain = 0
KLA1 072300Z 34004KT 06/06 A3021 RMK A01 T00570057  RH  100%=      5-min Rain = 0.01
KLA1 072301Z 34003KT 06/06 A3021 RMK A01 T00570057  RH  100%=      5-min Rain = 0
KLA1 072302Z 33002KT 06/06 A3021 RMK A01 T00570057  RH  100%=      5-min Rain = 0
KLA1 072303Z 34003KT 06/06 A3021 RMK A01 T00570057  RH  100%=      5-min Rain = 0
KLA1 072304Z 33002KT 06/06 A3021 RMK A01 T00570057  RH  100%=      5-min Rain = 0.01
KLA1 072305Z 34004KT 06/06 A3021 RMK A01 T00570057  RH  100%=      5-min Rain = 0
KLA1 072306Z 35003KT 06/06 A3021 RMK A01 T00570057  RH  100%=      5-min Rain = 0
KLA1 072307Z 35003KT 06/06 A3021 RMK A01 T00570057  RH  100%=      5-min Rain = 0
KLA1 072308Z 35004KT 06/06 A3021 RMK A01 T00570057  RH  100%=      5-min Rain = 0
KLA1 072309Z 00004KT 06/06 A3021 RMK A01 T00560056  RH  100%=      5-min Rain = 0.01
KLA1 072310Z 00003KT 06/06 A3021 RMK A01 T00570057  RH  100%=      5-min Rain = 0
KLA1 072311Z 36003KT 06/06 A3021 RMK A01 T00570057  RH  100%=      5-min Rain = 0
KLA1 072312Z 35003KT 06/06 A3021 RMK A01 T00570057  RH  100%=      5-min Rain = 0
KLA1 072313Z 35003KT 06/06 A3021 RMK A01 T00560056  RH  100%=      5-min Rain = 0
KLA1 072314Z 36002KT 06/06 A302 RMK A01 T00560056  RH  100%=      5-min Rain = 0
KLA1 072315Z 36002KT 06/06 A302 RMK A01 T00560056  RH  100%=      5-min Rain = 0
KLA1 072316Z 01002KT 06/06 A302 RMK A01 T00560056  RH  100%=      5-min Rain = 0
KLA1 072317Z 02002KT 06/06 A302 RMK A01 T00560056  RH  100%=      5-min Rain = 0.01
KLA1 072318Z 01002KT 06/06 A302 RMK A01 T00560056  RH  100%=      5-min Rain = 0
KLA1 072319Z 00002KT 06/06 A302 RMK A01 T00560056  RH  100%=      5-min Rain = 0
KLA1 072320Z 00002KT 06/06 A302 RMK A01 T00560056  RH  100%=      5-min Rain = 0
KLA1 072321Z 01002KT 06/06 A302 RMK A01 T00570056  RH  100%=      5-min Rain = 0
KLA1 072322Z 01002KT 06/06 A302 RMK A01 T00570057  RH  100%=      5-min Rain = 0
KLA1 072323Z 01002KT 06/06 A302 RMK A01 T00570057  RH  100%=      5-min Rain = 0
KLA1 072324Z 01002KT 06/06 A302 RMK A01 T00570057  RH  100%=      5-min Rain = 0
KLA1 072325Z 01001KT 06/06 A302 RMK A01 T00570057  RH  100%=      5-min Rain = 0
KLA1 072326Z 01001KT 06/06 A302 RMK A01 T00570057  RH  100%=      5-min Rain = 0
KLA1 072327Z 35001KT 06/06 A302 RMK A01 T00570057  RH  100%=      5-min Rain = 0.01
KLA1 072328Z 36001KT 06/06 A302 RMK A01 T00570057  RH  100%=      5-min Rain = 0
KLA1 072329Z 36001KT 06/06 A302 RMK A01 T00570057  RH  100%=      5-min Rain = 0
KLA1 072330Z 34001KT 06/06 A302 RMK A01 T00570057  RH  100%=      5-min Rain = 0
KLA1 072331Z 34003KT 06/06 A302 RMK A01 T00570057  RH  100%=      5-min Rain = 0
KLA1 072332Z 35003KT 06/06 A302 RMK A01 T00570057  RH  100%=      5-min Rain = 0
KLA1 072333Z 34002KT 06/06 A302 RMK A01 T00570057  RH  100%=      5-min Rain = 0
KLA1 072334Z 35003KT 06/06 A302 RMK A01 T00570057  RH  100%=      5-min Rain = 0
KLA1 072335Z 32003KT 06/06 A302 RMK A01 T00570057  RH  100%=      5-min Rain = 0
KLA1 072336Z 31002KT 06/06 A302 RMK A01 T00570057  RH  100%=      5-min Rain = 0
KLA1 072337Z 31003KT 06/06 A302 RMK A01 T00580058  RH  100%=      5-min Rain = 0
KLA1 072338Z 32003KT 06/06 A302 RMK A01 T00580058  RH  100%=      5-min Rain = 0
KLA1 072339Z 32003KT 06/06 A302 RMK A01 T00580058  RH  100%=      5-min Rain = 0
KLA1 072340Z 33004KT 06/06 A302 RMK A01 T00580058  RH  100%=      5-min Rain = 0
KLA1 072341Z 33003KT 06/06 A302 RMK A01 T00580058  RH  100%=      5-min Rain = 0
KLA1 072342Z 33003KT 06/06 A302 RMK A01 T00570057  RH  100%=      5-min Rain = 0
KLA1 072343Z 33004KT 06/06 A3021 RMK A01 T00570057  RH  100%=      5-min Rain = 0
KLA1 072344Z 32004KT 06/06 A3021 RMK A01 T00570057  RH  100%=      5-min Rain = 0
KLA1 072345Z 33004KT 06/06 A3021 RMK A01 T00570057  RH  100%=      5-min Rain = 0
KLA1 072346Z 31004KT 06/06 A3021 RMK A01 T00570057  RH  100%=      5-min Rain = 0
KLA1 072347Z 32003KT 06/06 A3021 RMK A01 T00570057  RH  100%=      5-min Rain = 0
KLA1 072348Z 31004KT 06/06 A3021 RMK A01 T00570057  RH  100%=      5-min Rain = 0
KLA1 072349Z 32004KT 06/06 A3021 RMK A01 T00570057  RH  100%=      5-min Rain = 0
KLA1 072350Z 32003KT 06/06 A3021 RMK A01 T00570057  RH  100%=      5-min Rain = 0.01
KLA1 072351Z 34003KT 06/06 A3021 RMK A01 T00570057  RH  100%=      5-min Rain = 0
KLA1 072352Z 34004KT 06/06 A3021 RMK A01 T00570057  RH  100%=      5-min Rain = 0
KLA1 072353Z 34004KT 06/06 A3021 RMK A01 T00570057  RH  100%=      5-min Rain = 0
KLA1 072354Z 35004KT 06/06 A3021 RMK A01 T00570057  RH  100%=      5-min Rain = 0
KLA1 072355Z 35004KT 06/06 A3021 RMK A01 T00570057  RH  100%=      5-min Rain = 0
KLA1 072356Z 35005KT 06/06 A3021 RMK A01 T00570057  RH  100%=      5-min Rain = 0
KLA1 072357Z 01004KT 06/06 A3021 RMK A01 T00560056  RH  100%=      5-min Rain = 0
KLA1 072358Z 01004KT 06/06 A3021 RMK A01 T00560056  RH  100%=      5-min Rain = 0
KLA1 072359Z 00003KT 06/06 A3021 RMK A01 T00560056  RH  100%=      5-min Rain = 0
KLA1 080000Z 01005KT 06/06 A3021 RMK A01 T00560056  RH  100%=      5-min Rain = 0
KLA1 080001Z 01005KT 06/06 A3021 RMK A01 T00560056  RH  100%=      5-min Rain = 0
KLA1 080002Z 01005KT 06/06 A3021 RMK A01 T00560056  RH  100%=      5-min Rain = 0
KLA1 080003Z 36003KT 06/06 A3021 RMK A01 T00560056  RH  100%=      5-min Rain = 0
KLA1 080004Z 36002KT 06/06 A3021 RMK A01 T00560056  RH  100%=      5-min Rain = 0
KLA1 080005Z 36002KT 06/06 A3021 RMK A01 T00560056  RH  100%=      5-min Rain = 0
KLA1 080006Z 00003KT 06/06 A3021 RMK A01 T00560056  RH  100%=      5-min Rain = 0
KLA1 080007Z 35003KT 06/06 A3021 RMK A01 T00560056  RH  100%=      5-min Rain = 0
KLA1 080008Z 36002KT 06/06 A3021 RMK A01 T00560056  RH  100%=      5-min Rain = 0
KLA1 080009Z 34003KT 06/06 A3021 RMK A01 T00560056  RH  100%=      5-min Rain = 0
KLA1 080010Z 34003KT 06/06 A3021 RMK A01 T00560056  RH  100%=      5-min Rain = 0
KLA1 080011Z 34004KT 06/06 A3021 RMK A01 T00560056  RH  100%=      5-min Rain = 0
KLA1 080012Z 34004KT 06/06 A3022 RMK A01 T00560056  RH  100%=      5-min Rain = 0
KLA1 080013Z 31004KT 06/06 A3022 RMK A01 T00560056  RH  100%=      5-min Rain = 0
KLA1 080014Z 32004KT 06/06 A3022 RMK A01 T00560056  RH  100%=      5-min Rain = 0.01
KLA1 080015Z 32004KT 06/06 A3022 RMK A01 T00560056  RH  100%=      5-min Rain = 0
KLA1 080016Z 31004KT 06/06 A3022 RMK A01 T00560056  RH  100%=      5-min Rain = 0
KLA1 080017Z 31005KT 06/06 A3022 RMK A01 T00560056  RH  100%=      5-min Rain = 0
KLA1 080018Z 32005KT 06/06 A3022 RMK A01 T00560056  RH  100%=      5-min Rain = 0
KLA1 080019Z 33003KT 06/06 A3022 RMK A01 T00560056  RH  100%=      5-min Rain = 0
KLA1 080020Z 32004KT 06/06 A3022 RMK A01 T00560056  RH  100%=      5-min Rain = 0
KLA1 080021Z 33003KT 06/06 A3022 RMK A01 T00560056  RH  100%=      5-min Rain = 0
KLA1 080022Z 33003KT 06/06 A3022 RMK A01 T00560056  RH  100%=      5-min Rain = 0
KLA1 080023Z 34005KT 06/06 A3022 RMK A01 T00560056  RH  100%=      5-min Rain = 0
KLA1 080024Z 32004KT 06/06 A3022 RMK A01 T00560056  RH  100%=      5-min Rain = 0
KLA1 080025Z 34006KT 06/06 A3022 RMK A01 T00560056  RH  100%=      5-min Rain = 0
KLA1 080026Z 35006KT 06/06 A3022 RMK A01 T00560056  RH  100%=      5-min Rain = 0
KLA1 080027Z 34004KT 06/06 A3022 RMK A01 T00560056  RH  100%=      5-min Rain = 0
KLA1 080028Z 33005KT 06/06 A3022 RMK A01 T00550055  RH  100%=      5-min Rain = 0
KLA1 080029Z 34004KT 06/06 A3022 RMK A01 T00550055  RH  100%=      5-min Rain = 0
KLA1 080030Z 36004KT 06/06 A3022 RMK A01 T00550055  RH  100%=      5-min Rain = 0
KLA1 080031Z 01004KT 06/06 A3022 RMK A01 T00550055  RH  100%=      5-min Rain = 0
KLA1 080032Z 00004KT 06/06 A3022 RMK A01 T00550055  RH  100%=      5-min Rain = 0
KLA1 080033Z 02002KT 06/06 A3022 RMK A01 T00550055  RH  100%=      5-min Rain = 0
KLA1 080034Z 02002KT 06/06 A3021 RMK A01 T00550055  RH  100%=      5-min Rain = 0
KLA1 080035Z 03005KT 06/06 A3021 RMK A01 T00550055  RH  100%=      5-min Rain = 0.01
KLA1 080036Z 02005KT 06/06 A3021 RMK A01 T00550055  RH  100%=      5-min Rain = 0
KLA1 080037Z 02008KT 06/06 A3021 RMK A01 T00550055  RH  100%=      5-min Rain = 0
KLA1 080038Z 02005KT 06/06 A3021 RMK A01 T00550055  RH  100%=      5-min Rain = 0
KLA1 080039Z 03005KT 06/06 A3021 RMK A01 T00550055  RH  100%=      5-min Rain = 0
KLA1 080040Z 03004KT 05/05 A3021 RMK A01 T00540054  RH  100%=      5-min Rain = 0
KLA1 080041Z 02005KT 05/05 A3021 RMK A01 T00540054  RH  100%=      5-min Rain = 0
KLA1 080042Z 01003KT 05/05 A3021 RMK A01 T00540054  RH  100%=      5-min Rain = 0
KLA1 080043Z 03001KT 05/05 A3021 RMK A01 T00540054  RH  099%=      5-min Rain = 0
KLA1 080044Z 02002KT 06/05 A3021 RMK A01 T00550054  RH  099%=      5-min Rain = 0
KLA1 080045Z 02002KT 06/05 A3021 RMK A01 T00550054  RH  099%=      5-min Rain = 0
KLA1 080046Z 02002KT 06/05 A3021 RMK A01 T00550054  RH  099%=      5-min Rain = 0
KLA1 080047Z 03004KT 06/05 A3021 RMK A01 T00550054  RH  099%=      5-min Rain = 0
KLA1 080048Z 03004KT 06/05 A3021 RMK A01 T00550054  RH  099%=      5-min Rain = 0
KLA1 080049Z 02004KT 06/05 A3021 RMK A01 T00550054  RH  099%=      5-min Rain = 0
KLA1 080050Z 04001KT 06/05 A3021 RMK A01 T00550054  RH  099%=      5-min Rain = 0
KLA1 080051Z 05000KT 06/05 A3021 RMK A01 T00550054  RH  099%=      5-min Rain = 0
KLA1 080052Z 33000KT 06/05 A3021 RMK A01 T00550053  RH  099%=      5-min Rain = 0
KLA1 080053Z 00003KT 06/05 A3022 RMK A01 T00550054  RH  099%=      5-min Rain = 0
KLA1 080054Z 02005KT 06/05 A3022 RMK A01 T00550053  RH  099%=      5-min Rain = 0
KLA1 080055Z 00004KT 06/05 A3022 RMK A01 T00550053  RH  099%=      5-min Rain = 0
KLA1 080056Z 36005KT 06/05 A3022 RMK A01 T00550053  RH  099%=      5-min Rain = 0
KLA1 080057Z 01004KT 06/05 A3022 RMK A01 T00560054  RH  099%=      5-min Rain = 0
KLA1 080058Z 01004KT 06/05 A3022 RMK A01 T00550054  RH  099%=      5-min Rain = 0
KLA1 080059Z 01003KT 06/05 A3022 RMK A01 T00550053  RH  099%=      5-min Rain = 0
KLA1 080100Z 02004KT 06/05 A3022 RMK A01 T00550053  RH  098%=      5-min Rain = 0
KLA1 080101Z 02003KT 06/05 A3022 RMK A01 T00550053  RH  098%=      5-min Rain = 0
KLA1 080102Z 02004KT 06/05 A3022 RMK A01 T00550053  RH  098%=      5-min Rain = 0
KLA1 080103Z 02002KT 06/05 A3022 RMK A01 T00550053  RH  098%=      5-min Rain = 0
KLA1 080104Z 02003KT 06/05 A3022 RMK A01 T00560053  RH  098%=      5-min Rain = 0
KLA1 080105Z 36003KT 06/05 A3022 RMK A01 T00560054  RH  099%=      5-min Rain = 0
KLA1 080106Z 03002KT 06/05 A3022 RMK A01 T00560054  RH  099%=      5-min Rain = 0
KLA1 080107Z 04002KT 06/05 A3022 RMK A01 T00560054  RH  099%=      5-min Rain = 0
KLA1 080108Z 02002KT 06/05 A3022 RMK A01 T00560054  RH  099%=      5-min Rain = 0
KLA1 080109Z 03003KT 06/05 A3022 RMK A01 T00560054  RH  099%=      5-min Rain = 0
KLA1 080110Z 05001KT 06/05 A3022 RMK A01 T00560054  RH  099%=      5-min Rain = 0
KLA1 080111Z 01000KT 06/05 A3022 RMK A01 T00560054  RH  099%=      5-min Rain = 0
KLA1 080112Z 03001KT 06/05 A3022 RMK A01 T00560054  RH  099%=      5-min Rain = 0
KLA1 080113Z 04002KT 06/05 A3022 RMK A01 T00560054  RH  099%=      5-min Rain = 0
KLA1 080114Z 05002KT 06/06 A3022 RMK A01 T00560055  RH  099%=      5-min Rain = 0
KLA1 080115Z 02002KT 06/06 A3022 RMK A01 T00560055  RH  099%=      5-min Rain = 0
KLA1 080116Z 05002KT 06/06 A3022 RMK A01 T00560055  RH  099%=      5-min Rain = 0
KLA1 080117Z 02003KT 06/05 A3022 RMK A01 T00560054  RH  099%=      5-min Rain = 0
KLA1 080118Z 02003KT 06/05 A3023 RMK A01 T00560054  RH  099%=      5-min Rain = 0
KLA1 080119Z 04003KT 06/05 A3023 RMK A01 T00560054  RH  099%=      5-min Rain = 0
KLA1 080120Z 04002KT 06/05 A3023 RMK A01 T00560054  RH  099%=      5-min Rain = 0
KLA1 080121Z 02003KT 06/05 A3023 RMK A01 T00560054  RH  099%=      5-min Rain = 0
KLA1 080122Z 03002KT 06/05 A3023 RMK A01 T00560054  RH  099%=      5-min Rain = 0
KLA1 080123Z 03000KT 06/05 A3023 RMK A01 T00560054  RH  099%=      5-min Rain = 0
KLA1 080124Z 34001KT 06/06 A3023 RMK A01 T00570055  RH  099%=      5-min Rain = 0
KLA1 080125Z 10000KT 06/06 A3023 RMK A01 T00560055  RH  099%=      5-min Rain = 0
KLA1 080126Z 11002KT 06/05 A3023 RMK A01 T00560054  RH  099%=      5-min Rain = 0
KLA1 080127Z 06003KT 06/05 A3023 RMK A01 T00560054  RH  098%=      5-min Rain = 0
KLA1 080128Z 05001KT 06/05 A3023 RMK A01 T00560053  RH  098%=      5-min Rain = 0
KLA1 080129Z 06003KT 06/05 A3023 RMK A01 T00560052  RH  097%=      5-min Rain = 0
KLA1 080130Z 08003KT 06/05 A3022 RMK A01 T00560052  RH  097%=      5-min Rain = 0
KLA1 080131Z 06005KT 06/05 A3022 RMK A01 T00570052  RH  097%=      5-min Rain = 0
KLA1 080132Z 04006KT 06/05 A3022 RMK A01 T00570052  RH  097%=      5-min Rain = 0
KLA1 080133Z 05006KT 06/05 A3021 RMK A01 T00570052  RH  097%=      5-min Rain = 0
KLA1 080134Z 05006KT 06/05 A302 RMK A01 T00570052  RH  097%=      5-min Rain = 0
KLA1 080135Z 06007KT 06/05 A3019 RMK A01 T00570053  RH  097%=      5-min Rain = 0
KLA1 080136Z 07008KT 06/05 A3018 RMK A01 T00570053  RH  098%=      5-min Rain = 0
KLA1 080137Z 08011KT 06/05 A3017 RMK A01 T00570054  RH  098%=      5-min Rain = 0
KLA1 080138Z 07013KT 06/05 A3016 RMK A01 T00570054  RH  098%=      5-min Rain = 0
KLA1 080139Z 07012KT 06/05 A3015 RMK A01 T00570054  RH  098%=      5-min Rain = 0
KLA1 080140Z 06009KT 06/05 A3015 RMK A01 T00560053  RH  098%=      5-min Rain = 0
KLA1 080141Z 08007KT 06/05 A3015 RMK A01 T00560054  RH  098%=      5-min Rain = 0
KLA1 080142Z 09005KT 06/05 A3015 RMK A01 T00560054  RH  099%=      5-min Rain = 0
KLA1 080143Z 08004KT 06/05 A3015 RMK A01 T00560054  RH  099%=      5-min Rain = 0
KLA1 080144Z 07004KT 06/05 A3015 RMK A01 T00560054  RH  099%=      5-min Rain = 0
KLA1 080145Z 06006KT 06/05 A3015 RMK A01 T00560054  RH  099%=      5-min Rain = 0
KLA1 080146Z 06008KT 06/05 A3016 RMK A01 T00560054  RH  099%=      5-min Rain = 0
KLA1 080147Z 06006KT 06/05 A3016 RMK A01 T00560054  RH  099%=      5-min Rain = 0
KLA1 080148Z 06007KT 06/05 A3016 RMK A01 T00560054  RH  099%=      5-min Rain = 0
KLA1 080149Z 04003KT 06/05 A3016 RMK A01 T00560054  RH  098%=      5-min Rain = 0
KLA1 080150Z 34003KT 06/05 A3017 RMK A01 T00560054  RH  098%=      5-min Rain = 0
KLA1 080151Z 36006KT 06/05 A3017 RMK A01 T00560053  RH  098%=      5-min Rain = 0
KLA1 080152Z 35008KT 06/05 A3018 RMK A01 T00560053  RH  098%=      5-min Rain = 0
KLA1 080153Z 35008KT 06/05 A3019 RMK A01 T00560053  RH  098%=      5-min Rain = 0
KLA1 080154Z 34009KT 06/05 A3019 RMK A01 T00560053  RH  098%=      5-min Rain = 0
KLA1 080155Z 00006KT 06/05 A302 RMK A01 T00560052  RH  097%=      5-min Rain = 0
KLA1 080156Z 32005KT 06/05 A302 RMK A01 T00560052  RH  097%=      5-min Rain = 0
KLA1 080157Z 32007KT 06/05 A3021 RMK A01 T00570052  RH  097%=      5-min Rain = 0
KLA1 080158Z 34007KT 06/05 A3021 RMK A01 T00570053  RH  097%=      5-min Rain = 0
KLA1 080159Z 34006KT 06/05 A3021 RMK A01 T00570052  RH  097%=      5-min Rain = 0
KLA1 080200Z 36004KT 06/05 A3021 RMK A01 T00570051  RH  096%=      5-min Rain = 0
KLA1 080201Z 35005KT 06/05 A3021 RMK A01 T00570052  RH  096%=      5-min Rain = 0
KLA1 080202Z 34006KT 06/05 A3021 RMK A01 T00570052  RH  096%=      5-min Rain = 0
KLA1 080203Z 01005KT 06/05 A3021 RMK A01 T00570051  RH  096%=      5-min Rain = 0
KLA1 080204Z 02007KT 06/05 A3021 RMK A01 T00570051  RH  096%=      5-min Rain = 0
KLA1 080205Z 01005KT 06/05 A3021 RMK A01 T00570051  RH  096%=      5-min Rain = 0
KLA1 080206Z 01005KT 06/05 A3021 RMK A01 T00570051  RH  096%=      5-min Rain = 0
KLA1 080207Z 34004KT 06/05 A3021 RMK A01 T00570051  RH  096%=      5-min Rain = 0
KLA1 080208Z 32003KT 06/05 A3021 RMK A01 T00570051  RH  096%=      5-min Rain = 0
KLA1 080209Z 33005KT 06/05 A3021 RMK A01 T00570051  RH  096%=      5-min Rain = 0
KLA1 080210Z 35005KT 06/05 A3022 RMK A01 T00570051  RH  096%=      5-min Rain = 0
KLA1 080211Z 34005KT 06/05 A3022 RMK A01 T00570051  RH  096%=      5-min Rain = 0
KLA1 080212Z 32004KT 06/05 A3022 RMK A01 T00570051  RH  096%=      5-min Rain = 0
KLA1 080213Z 32004KT 06/05 A3022 RMK A01 T00570052  RH  097%=      5-min Rain = 0
KLA1 080214Z 32004KT 06/05 A3022 RMK A01 T00570052  RH  097%=      5-min Rain = 0
KLA1 080215Z 34005KT 06/05 A3022 RMK A01 T00570052  RH  097%=      5-min Rain = 0
KLA1 080216Z 35005KT 06/05 A3022 RMK A01 T00570052  RH  097%=      5-min Rain = 0
KLA1 080217Z 35006KT 06/05 A3022 RMK A01 T00560051  RH  096%=      5-min Rain = 0
KLA1 080218Z 02003KT 06/05 A3022 RMK A01 T00560051  RH  096%=      5-min Rain = 0
KLA1 080219Z 02004KT 06/05 A3022 RMK A01 T00560050  RH  096%=      5-min Rain = 0
KLA1 080220Z 35004KT 06/05 A3022 RMK A01 T00560049  RH  095%=      5-min Rain = 0
KLA1 080221Z 35006KT 06/05 A3022 RMK A01 T00560049  RH  095%=      5-min Rain = 0
KLA1 080222Z 31003KT 06/05 A3022 RMK A01 T00560048  RH  095%=      5-min Rain = 0
KLA1 080223Z 31004KT 06/05 A3022 RMK A01 T00560048  RH  095%=      5-min Rain = 0
KLA1 080224Z 29003KT 06/05 A3022 RMK A01 T00560050  RH  095%=      5-min Rain = 0
KLA1 080225Z 30004KT 06/05 A3022 RMK A01 T00560050  RH  096%=      5-min Rain = 0
KLA1 080226Z 30005KT 06/05 A3022 RMK A01 T00560051  RH  096%=      5-min Rain = 0
KLA1 080227Z 32004KT 06/05 A3022 RMK A01 T00560051  RH  097%=      5-min Rain = 0
KLA1 080228Z 35003KT 06/05 A3022 RMK A01 T00560051  RH  097%=      5-min Rain = 0
KLA1 080229Z 35004KT 06/05 A3022 RMK A01 T00560051  RH  097%=      5-min Rain = 0
KLA1 080230Z 00003KT 06/05 A3022 RMK A01 T00560052  RH  097%=      5-min Rain = 0
KLA1 080231Z 03004KT 06/05 A3022 RMK A01 T00560052  RH  097%=      5-min Rain = 0
KLA1 080232Z 01006KT 06/05 A3021 RMK A01 T00550051  RH  097%=      5-min Rain = 0
KLA1 080233Z 01006KT 06/05 A3021 RMK A01 T00550050  RH  097%=      5-min Rain = 0
KLA1 080234Z 35010KT 06/05 A3021 RMK A01 T00550049  RH  096%=      5-min Rain = 0
KLA1 080235Z 36005KT 06/05 A3021 RMK A01 T00550048  RH  095%=      5-min Rain = 0
KLA1 080236Z 01005KT 06/05 A3021 RMK A01 T00550047  RH  095%=      5-min Rain = 0
KLA1 080237Z 05006KT 06/05 A3021 RMK A01 T00550047  RH  095%=      5-min Rain = 0
KLA1 080238Z 02004KT 06/05 A3021 RMK A01 T00550048  RH  095%=      5-min Rain = 0
KLA1 080239Z 36002KT 06/05 A3021 RMK A01 T00550048  RH  095%=      5-min Rain = 0
KLA1 080240Z 34001KT 06/05 A3021 RMK A01 T00550048  RH  096%=      5-min Rain = 0
KLA1 080241Z 36004KT 06/05 A302 RMK A01 T00550049  RH  096%=      5-min Rain = 0
KLA1 080242Z 35004KT 06/05 A302 RMK A01 T00550048  RH  096%=      5-min Rain = 0
KLA1 080243Z 03004KT 06/05 A302 RMK A01 T00550048  RH  095%=      5-min Rain = 0
KLA1 080244Z 00003KT 06/05 A302 RMK A01 T00550048  RH  096%=      5-min Rain = 0
KLA1 080245Z 31004KT 06/05 A302 RMK A01 T00550049  RH  096%=      5-min Rain = 0
KLA1 080246Z 32003KT 06/05 A302 RMK A01 T00550049  RH  096%=      5-min Rain = 0
KLA1 080247Z 33004KT 06/05 A302 RMK A01 T00550050  RH  097%=      5-min Rain = 0
KLA1 080248Z 34002KT 05/05 A302 RMK A01 T00540050  RH  097%=      5-min Rain = 0
KLA1 080249Z 32002KT 05/05 A302 RMK A01 T00540050  RH  097%=      5-min Rain = 0
KLA1 080250Z 34002KT 05/05 A302 RMK A01 T00540050  RH  098%=      5-min Rain = 0
KLA1 080251Z 00003KT 05/05 A302 RMK A01 T00530050  RH  098%=      5-min Rain = 0
KLA1 080252Z 02002KT 05/05 A302 RMK A01 T00540051  RH  098%=      5-min Rain = 0
KLA1 080253Z 04003KT 05/05 A302 RMK A01 T00540051  RH  098%=      5-min Rain = 0
KLA1 080254Z 03003KT 05/05 A3019 RMK A01 T00530050  RH  098%=      5-min Rain = 0
KLA1 080255Z 04003KT 05/05 A3019 RMK A01 T00520049  RH  098%=      5-min Rain = 0
KLA1 080256Z 01005KT 05/05 A3019 RMK A01 T00530049  RH  098%=      5-min Rain = 0
KLA1 080257Z 02006KT 05/05 A3018 RMK A01 T00530050  RH  098%=      5-min Rain = 0
KLA1 080258Z 05005KT 05/05 A3018 RMK A01 T00530049  RH  098%=      5-min Rain = 0
KLA1 080259Z 03007KT 05/05 A3018 RMK A01 T00520049  RH  098%=      5-min Rain = 0
KLA1 080300Z 03004KT 05/05 A3018 RMK A01 T00520049  RH  098%=      5-min Rain = 0
KLA1 080301Z 05005KT 05/05 A3018 RMK A01 T00520048  RH  097%=      5-min Rain = 0
KLA1 080302Z 02005KT 05/05 A3018 RMK A01 T00520047  RH  097%=      5-min Rain = 0
KLA1 080303Z 04003KT 05/05 A3018 RMK A01 T00510045  RH  096%=      5-min Rain = 0
KLA1 080304Z 01005KT 05/05 A3019 RMK A01 T00510045  RH  096%=      5-min Rain = 0
KLA1 080305Z 03004KT 05/04 A3019 RMK A01 T00510044  RH  095%=      5-min Rain = 0
KLA1 080306Z 04005KT 05/04 A302 RMK A01 T00510044  RH  095%=      5-min Rain = 0
KLA1 080307Z 04005KT 05/04 A302 RMK A01 T00510044  RH  095%=      5-min Rain = 0
KLA1 080308Z 02003KT 05/04 A302 RMK A01 T00510044  RH  095%=      5-min Rain = 0
KLA1 080309Z 00003KT 05/04 A3019 RMK A01 T00510044  RH  095%=      5-min Rain = 0
KLA1 080310Z 03002KT 05/05 A3019 RMK A01 T00510045  RH  096%=      5-min Rain = 0
KLA1 080311Z 04002KT 05/04 A3019 RMK A01 T00510044  RH  095%=      5-min Rain = 0
KLA1 080312Z 02000KT 05/04 A3019 RMK A01 T00510044  RH  095%=      5-min Rain = 0
KLA1 080313Z 36003KT 05/04 A302 RMK A01 T00510044  RH  095%=      5-min Rain = 0
KLA1 080314Z 00006KT 05/04 A302 RMK A01 T00510044  RH  095%=      5-min Rain = 0
KLA1 080315Z 01005KT 05/04 A302 RMK A01 T00510042  RH  094%=      5-min Rain = 0
KLA1 080316Z 02004KT 05/04 A302 RMK A01 T00510042  RH  094%=      5-min Rain = 0
KLA1 080317Z 02002KT 05/04 A302 RMK A01 T00510042  RH  094%=      5-min Rain = 0
KLA1 080318Z 35001KT 05/04 A3021 RMK A01 T00510042  RH  094%=      5-min Rain = 0
KLA1 080319Z 29003KT 05/04 A3021 RMK A01 T00510043  RH  094%=      5-min Rain = 0
KLA1 080320Z 28003KT 05/04 A3022 RMK A01 T00510043  RH  095%=      5-min Rain = 0
KLA1 080321Z 27002KT 05/04 A3022 RMK A01 T00510044  RH  095%=      5-min Rain = 0
KLA1 080322Z 27002KT 05/04 A3022 RMK A01 T00510044  RH  095%=      5-min Rain = 0
KLA1 080323Z 27003KT 05/04 A3023 RMK A01 T00510044  RH  095%=      5-min Rain = 0
KLA1 080324Z 26003KT 05/05 A3023 RMK A01 T00520045  RH  095%=      5-min Rain = 0
KLA1 080325Z 27002KT 05/05 A3023 RMK A01 T00520046  RH  096%=      5-min Rain = 0
KLA1 080326Z 29002KT 05/05 A3023 RMK A01 T00520048  RH  097%=      5-min Rain = 0
KLA1 080327Z 34004KT 05/05 A3023 RMK A01 T00520048  RH  097%=      5-min Rain = 0
KLA1 080328Z 34005KT 05/05 A3023 RMK A01 T00520047  RH  097%=      5-min Rain = 0
KLA1 080329Z 36006KT 05/05 A3022 RMK A01 T00510045  RH  096%=      5-min Rain = 0
KLA1 080330Z 36005KT 05/04 A3022 RMK A01 T00510044  RH  095%=      5-min Rain = 0
KLA1 080331Z 36004KT 05/04 A3022 RMK A01 T00510043  RH  095%=      5-min Rain = 0
KLA1 080332Z 36004KT 05/04 A3022 RMK A01 T00510043  RH  095%=      5-min Rain = 0
KLA1 080333Z 36004KT 05/04 A3022 RMK A01 T00510043  RH  094%=      5-min Rain = 0
KLA1 080334Z 36003KT 05/04 A3022 RMK A01 T00510043  RH  094%=      5-min Rain = 0
KLA1 080335Z 00003KT 05/04 A3022 RMK A01 T00510043  RH  095%=      5-min Rain = 0
KLA1 080336Z 36002KT 05/04 A3022 RMK A01 T00510044  RH  095%=      5-min Rain = 0
KLA1 080337Z 33002KT 05/04 A3022 RMK A01 T00510044  RH  096%=      5-min Rain = 0
KLA1 080338Z 32003KT 05/05 A3022 RMK A01 T00510045  RH  096%=      5-min Rain = 0
KLA1 080339Z 32002KT 05/05 A3022 RMK A01 T00510045  RH  096%=      5-min Rain = 0
KLA1 080340Z 30003KT 05/05 A3022 RMK A01 T00510046  RH  097%=      5-min Rain = 0
KLA1 080341Z 30003KT 05/05 A3023 RMK A01 T00510047  RH  097%=      5-min Rain = 0
KLA1 080342Z 29004KT 05/05 A3023 RMK A01 T00510047  RH  098%=      5-min Rain = 0
KLA1 080343Z 30004KT 05/05 A3023 RMK A01 T00510047  RH  098%=      5-min Rain = 0
KLA1 080344Z 32003KT 05/05 A3023 RMK A01 T00500047  RH  098%=      5-min Rain = 0
KLA1 080345Z 30003KT 05/05 A3023 RMK A01 T00500048  RH  098%=      5-min Rain = 0
KLA1 080346Z 31004KT 05/05 A3023 RMK A01 T00500048  RH  098%=      5-min Rain = 0
KLA1 080347Z 32005KT 05/05 A3023 RMK A01 T00500048  RH  098%=      5-min Rain = 0
KLA1 080348Z 31005KT 05/05 A3023 RMK A01 T00500048  RH  098%=      5-min Rain = 0
KLA1 080349Z 32006KT 05/05 A3022 RMK A01 T00500047  RH  099%=      5-min Rain = 0
KLA1 080350Z 33005KT 05/05 A3022 RMK A01 T00490047  RH  099%=      5-min Rain = 0.01
KLA1 080351Z 32004KT 05/05 A3023 RMK A01 T00490047  RH  099%=      5-min Rain = 0
KLA1 080352Z 32005KT 05/05 A3023 RMK A01 T00490047  RH  099%=      5-min Rain = 0
KLA1 080353Z 32005KT 05/05 A3023 RMK A01 T00480047  RH  099%=      5-min Rain = 0.01
KLA1 080354Z 32005KT 05/05 A3023 RMK A01 T00480047  RH  099%=      5-min Rain = 0
KLA1 080355Z 31006KT 05/05 A3023 RMK A01 T00480047  RH  099%=      5-min Rain = 0
KLA1 080356Z 31006KT 05/05 A3023 RMK A01 T00470047  RH  100%=      5-min Rain = 0
KLA1 080357Z 32006KT 05/05 A3023 RMK A01 T00470046  RH  100%=      5-min Rain = 0.01
KLA1 080358Z 32006KT 05/05 A3023 RMK A01 T00470046  RH  100%=      5-min Rain = 0
KLA1 080359Z 32005KT 05/05 A3023 RMK A01 T00460046  RH  100%=      5-min Rain = 0
KLA1 080400Z 33004KT 05/05 A3023 RMK A01 T00460046  RH  100%=      5-min Rain = 0
KLA1 080401Z 32005KT 05/05 A3023 RMK A01 T00460046  RH  100%=      5-min Rain = 0
KLA1 080402Z 33004KT 05/05 A3023 RMK A01 T00460046  RH  100%=      5-min Rain = 0
KLA1 080403Z 34005KT 05/05 A3023 RMK A01 T00460046  RH  100%=      5-min Rain = 0.01
KLA1 080404Z 34006KT 05/05 A3022 RMK A01 T00460046  RH  100%=      5-min Rain = 0
KLA1 080405Z 34006KT 05/05 A3022 RMK A01 T00460046  RH  100%=      5-min Rain = 0
KLA1 080406Z 34006KT 05/05 A3022 RMK A01 T00450045  RH  100%=      5-min Rain = 0
KLA1 080407Z 34005KT 05/05 A3022 RMK A01 T00450045  RH  100%=      5-min Rain = 0
KLA1 080408Z 35007KT 05/05 A3021 RMK A01 T00450045  RH  100%=      5-min Rain = 0
KLA1 080409Z 34008KT 05/05 A3021 RMK A01 T00450045  RH  100%=      5-min Rain = 0
KLA1 080410Z 34007KT 05/04 A3021 RMK A01 T00450044  RH  100%=      5-min Rain = 0
KLA1 080411Z 35006KT 04/04 A3021 RMK A01 T00440044  RH  100%=      5-min Rain = 0
KLA1 080412Z 35007KT 04/04 A302 RMK A01 T00440044  RH  100%=      5-min Rain = 0.01
KLA1 080413Z 35006KT 05/04 A302 RMK A01 T00450044  RH  100%=      5-min Rain = 0
KLA1 080414Z 00005KT 04/04 A302 RMK A01 T00440044  RH  100%=      5-min Rain = 0
KLA1 080415Z 35005KT 04/04 A302 RMK A01 T00440044  RH  100%=      5-min Rain = 0
KLA1 080416Z 34003KT 04/04 A302 RMK A01 T00440044  RH  100%=      5-min Rain = 0
KLA1 080417Z 36004KT 04/04 A3021 RMK A01 T00440044  RH  100%=      5-min Rain = 0
KLA1 080418Z 36003KT 04/04 A3021 RMK A01 T00440044  RH  100%=      5-min Rain = 0
KLA1 080419Z 00003KT 04/04 A3021 RMK A01 T00440044  RH  100%=      5-min Rain = 0
KLA1 080420Z 36004KT 04/04 A3022 RMK A01 T00440044  RH  100%=      5-min Rain = 0
KLA1 080421Z 36003KT 04/04 A3022 RMK A01 T00440044  RH  100%=      5-min Rain = 0
KLA1 080422Z 35003KT 04/04 A3022 RMK A01 T00440044  RH  100%=      5-min Rain = 0
KLA1 080423Z 35003KT 04/04 A3022 RMK A01 T00440044  RH  100%=      5-min Rain = 0
KLA1 080424Z 34004KT 04/04 A3022 RMK A01 T00440044  RH  100%=      5-min Rain = 0
KLA1 080425Z 34005KT 04/04 A3022 RMK A01 T00440044  RH  100%=      5-min Rain = 0
KLA1 080426Z 33004KT 04/04 A3022 RMK A01 T00440044  RH  100%=      5-min Rain = 0
KLA1 080427Z 33004KT 04/04 A3022 RMK A01 T00440044  RH  100%=      5-min Rain = 0
KLA1 080428Z 33004KT 04/04 A3022 RMK A01 T00440044  RH  100%=      5-min Rain = 0
KLA1 080429Z 31003KT 05/05 A3023 RMK A01 T00450045  RH  100%=      5-min Rain = 0
KLA1 080430Z 32003KT 05/05 A3023 RMK A01 T00450045  RH  100%=      5-min Rain = 0
KLA1 080431Z 32004KT 05/05 A3023 RMK A01 T00450045  RH  100%=      5-min Rain = 0
KLA1 080432Z 35003KT 05/05 A3022 RMK A01 T00450045  RH  100%=      5-min Rain = 0
KLA1 080433Z 35006KT 05/05 A3022 RMK A01 T00450045  RH  100%=      5-min Rain = 0
KLA1 080434Z 35004KT 05/05 A3022 RMK A01 T00450045  RH  100%=      5-min Rain = 0
KLA1 080435Z 00005KT 04/04 A3022 RMK A01 T00440044  RH  100%=      5-min Rain = 0
KLA1 080436Z 35005KT 04/04 A3022 RMK A01 T00440044  RH  100%=      5-min Rain = 0
KLA1 080437Z 36007KT 04/04 A3022 RMK A01 T00440044  RH  100%=      5-min Rain = 0
KLA1 080438Z 35005KT 04/04 A3022 RMK A01 T00440044  RH  100%=      5-min Rain = 0
KLA1 080439Z 36005KT 04/04 A3022 RMK A01 T00440044  RH  100%=      5-min Rain = 0
KLA1 080440Z 01005KT 04/04 A3022 RMK A01 T00440044  RH  100%=      5-min Rain = 0
KLA1 080441Z 01006KT 04/04 A3022 RMK A01 T00440044  RH  100%=      5-min Rain = 0
KLA1 080442Z 36006KT 04/04 A3022 RMK A01 T00440044  RH  100%=      5-min Rain = 0
KLA1 080443Z 35005KT 04/04 A3022 RMK A01 T00440044  RH  100%=      5-min Rain = 0.01
KLA1 080444Z 36005KT 05/05 A3022 RMK A01 T00450045  RH  100%=      5-min Rain = 0
KLA1 080445Z 01005KT 04/04 A3022 RMK A01 T00440044  RH  100%=      5-min Rain = 0
KLA1 080446Z 01005KT 04/04 A3022 RMK A01 T00440044  RH  100%=      5-min Rain = 0
KLA1 080447Z 36004KT 04/04 A3021 RMK A01 T00440044  RH  100%=      5-min Rain = 0
KLA1 080448Z 00006KT 04/04 A3021 RMK A01 T00440044  RH  100%=      5-min Rain = 0
KLA1 080449Z 00005KT 04/04 A3022 RMK A01 T00440044  RH  100%=      5-min Rain = 0
KLA1 080450Z 34004KT 04/04 A3022 RMK A01 T00440044  RH  100%=      5-min Rain = 0
KLA1 080451Z 32003KT 04/04 A3022 RMK A01 T00440044  RH  100%=      5-min Rain = 0
KLA1 080452Z 34003KT 04/04 A3022 RMK A01 T00440044  RH  100%=      5-min Rain = 0
KLA1 080453Z 33003KT 04/04 A3022 RMK A01 T00440044  RH  100%=      5-min Rain = 0
KLA1 080454Z 33003KT 04/04 A3022 RMK A01 T00440044  RH  100%=      5-min Rain = 0
KLA1 080455Z 33005KT 05/05 A3022 RMK A01 T00450045  RH  100%=      5-min Rain = 0
KLA1 080456Z 32004KT 05/05 A3022 RMK A01 T00450045  RH  100%=      5-min Rain = 0
KLA1 080457Z 32006KT 05/05 A3022 RMK A01 T00450045  RH  100%=      5-min Rain = 0
KLA1 080458Z 32005KT 05/05 A3022 RMK A01 T00450045  RH  100%=      5-min Rain = 0
KLA1 080459Z 32004KT 05/05 A3022 RMK A01 T00450045  RH  100%=      5-min Rain = 0
KLA1 080500Z 30005KT 05/05 A3023 RMK A01 T00450045  RH  100%=      5-min Rain = 0
KLA1 080501Z 33006KT 05/05 A3023 RMK A01 T00450045  RH  100%=      5-min Rain = 0
KLA1 080502Z 33005KT 05/05 A3023 RMK A01 T00450045  RH  100%=      5-min Rain = 0
KLA1 080503Z 32005KT 05/05 A3023 RMK A01 T00450045  RH  100%=      5-min Rain = 0
KLA1 080504Z 32003KT 05/05 A3023 RMK A01 T00450045  RH  100%=      5-min Rain = 0
KLA1 080505Z 32003KT 05/05 A3023 RMK A01 T00450045  RH  100%=      5-min Rain = 0
KLA1 080506Z 35004KT 05/05 A3023 RMK A01 T00450045  RH  100%=      5-min Rain = 0
KLA1 080507Z 32004KT 05/05 A3023 RMK A01 T00450045  RH  100%=      5-min Rain = 0
KLA1 080508Z 32004KT 05/05 A3023 RMK A01 T00450045  RH  100%=      5-min Rain = 0
KLA1 080509Z 32004KT 05/05 A3023 RMK A01 T00450045  RH  100%=      5-min Rain = 0
KLA1 080510Z 33005KT 04/04 A3023 RMK A01 T00440044  RH  100%=      5-min Rain = 0
KLA1 080511Z 35004KT 04/04 A3023 RMK A01 T00440044  RH  100%=      5-min Rain = 0
KLA1 080512Z 35005KT 04/04 A3023 RMK A01 T00440044  RH  100%=      5-min Rain = 0
KLA1 080513Z 35005KT 04/04 A3023 RMK A01 T00440044  RH  100%=      5-min Rain = 0
KLA1 080514Z 35005KT 04/04 A3023 RMK A01 T00440044  RH  100%=      5-min Rain = 0
KLA1 080515Z 35005KT 04/04 A3023 RMK A01 T00440044  RH  100%=      5-min Rain = 0
KLA1 080516Z 34005KT 04/04 A3023 RMK A01 T00440044  RH  100%=      5-min Rain = 0
KLA1 080517Z 34005KT 04/04 A3023 RMK A01 T00440044  RH  100%=      5-min Rain = 0
KLA1 080518Z 33004KT 04/04 A3023 RMK A01 T00440044  RH  100%=      5-min Rain = 0
KLA1 080519Z 33003KT 04/04 A3023 RMK A01 T00440044  RH  100%=      5-min Rain = 0
KLA1 080520Z 34003KT 04/04 A3023 RMK A01 T00440044  RH  100%=      5-min Rain = 0
KLA1 080521Z 34003KT 04/04 A3023 RMK A01 T00440044  RH  100%=      5-min Rain = 0
KLA1 080522Z 34003KT 04/04 A3023 RMK A01 T00440044  RH  100%=      5-min Rain = 0
KLA1 080523Z 35002KT 04/04 A3023 RMK A01 T00440044  RH  100%=      5-min Rain = 0
KLA1 080524Z 33002KT 04/04 A3023 RMK A01 T00430043  RH  100%=      5-min Rain = 0
KLA1 080525Z 33004KT 04/04 A3023 RMK A01 T00430043  RH  100%=      5-min Rain = 0
KLA1 080526Z 33004KT 04/04 A3023 RMK A01 T00430043  RH  100%=      5-min Rain = 0
KLA1 080527Z 33003KT 04/04 A3023 RMK A01 T00430043  RH  100%=      5-min Rain = 0
KLA1 080528Z 34003KT 04/04 A3023 RMK A01 T00440043  RH  100%=      5-min Rain = 0
KLA1 080529Z 34005KT 04/04 A3023 RMK A01 T00440044  RH  100%=      5-min Rain = 0.01
KLA1 080530Z 33003KT 04/04 A3022 RMK A01 T00430043  RH  100%=      5-min Rain = 0
KLA1 080531Z 33003KT 04/04 A3022 RMK A01 T00430043  RH  100%=      5-min Rain = 0
KLA1 080532Z 34006KT 04/04 A3022 RMK A01 T00430043  RH  100%=      5-min Rain = 0
KLA1 080533Z 35005KT 04/04 A3022 RMK A01 T00430043  RH  100%=      5-min Rain = 0
KLA1 080534Z 34004KT 04/04 A3022 RMK A01 T00430043  RH  100%=      5-min Rain = 0
KLA1 080535Z 34005KT 04/04 A3022 RMK A01 T00420042  RH  100%=      5-min Rain = 0
KLA1 080536Z 34004KT 04/04 A3022 RMK A01 T00430043  RH  100%=      5-min Rain = 0
KLA1 080537Z 34004KT 04/04 A3022 RMK A01 T00420042  RH  100%=      5-min Rain = 0
KLA1 080538Z 34003KT 04/04 A3022 RMK A01 T00420042  RH  100%=      5-min Rain = 0
KLA1 080539Z 34004KT 04/04 A3022 RMK A01 T00420042  RH  100%=      5-min Rain = 0
KLA1 080540Z 34004KT 04/04 A3022 RMK A01 T00420042  RH  100%=      5-min Rain = 0
KLA1 080541Z 33004KT 04/04 A3022 RMK A01 T00420042  RH  100%=      5-min Rain = 0
KLA1 080542Z 31003KT 04/04 A3022 RMK A01 T00420042  RH  100%=      5-min Rain = 0
KLA1 080543Z 31003KT 04/04 A3022 RMK A01 T00420042  RH  100%=      5-min Rain = 0
KLA1 080544Z 31003KT 04/04 A3022 RMK A01 T00430042  RH  100%=      5-min Rain = 0
KLA1 080545Z 31003KT 04/04 A3023 RMK A01 T00430043  RH  100%=      5-min Rain = 0.01
KLA1 080546Z 32004KT 04/04 A3023 RMK A01 T00420042  RH  100%=      5-min Rain = 0
KLA1 080547Z 31003KT 04/04 A3023 RMK A01 T00430043  RH  100%=      5-min Rain = 0
KLA1 080548Z 34004KT 04/04 A3023 RMK A01 T00430042  RH  100%=      5-min Rain = 0
KLA1 080549Z 33004KT 04/04 A3023 RMK A01 T00420042  RH  100%=      5-min Rain = 0
KLA1 080550Z 31003KT 04/04 A3023 RMK A01 T00420042  RH  100%=      5-min Rain = 0
KLA1 080551Z 33003KT 04/04 A3023 RMK A01 T00430043  RH  100%=      5-min Rain = 0
KLA1 080552Z 33004KT 04/04 A3023 RMK A01 T00430043  RH  100%=      5-min Rain = 0
KLA1 080553Z 33002KT 04/04 A3023 RMK A01 T00430043  RH  100%=      5-min Rain = 0
KLA1 080554Z 33003KT 04/04 A3022 RMK A01 T00430043  RH  100%=      5-min Rain = 0
KLA1 080555Z 35004KT 04/04 A3022 RMK A01 T00420042  RH  100%=      5-min Rain = 0
KLA1 080556Z 36004KT 04/04 A3022 RMK A01 T00420042  RH  100%=      5-min Rain = 0
KLA1 080557Z 00005KT 04/04 A3022 RMK A01 T00420042  RH  100%=      5-min Rain = 0
KLA1 080558Z 00004KT 04/04 A3021 RMK A01 T00420042  RH  100%=      5-min Rain = 0
KLA1 080559Z 35005KT 04/04 A3021 RMK A01 T00420042  RH  100%=      5-min Rain = 0

Page generated in 0.1018 seconds.